<?xml version="1.0" encoding="UTF-8" standalone="no" ?>
<gpx xmlns="http://www.topografix.com/GPX/1/1" xmlns:xsi="http://www.w3.org/2001/XMLSchema-instance" xsi:schemaLocation="http://www.topografix.com/GPX/1/1 http://www.topografix.com/GPX/1/1/gpx.xsd" version="1.1" creator="VisuGPX - https://www.visugpx.com">
  <metadata>
    <name>Rando, pont des Tuves  OVS 1 mars 2020 11:45:11</name>
    <desc><![CDATA[
]]></desc>
  </metadata>
  <trk>
    <name><![CDATA[Rando, pont des Tuves  OVS 1 mars 2020 11:45:11]]></name>
    <trkseg>
      <trkpt lat="43.63326" lon="6.78224">
        <ele>384</ele>
        <time>2020-03-01T10:45:12.000Z</time>
      </trkpt>
      <trkpt lat="43.6331" lon="6.78225">
        <ele>379.2</ele>
        <time>2020-03-01T10:45:13.000Z</time>
      </trkpt>
      <trkpt lat="43.6332" lon="6.78231">
        <ele>378.9</ele>
        <time>2020-03-01T10:45:16.000Z</time>
      </trkpt>
      <trkpt lat="43.63325" lon="6.78219">
        <ele>384.9</ele>
        <time>2020-03-01T10:45:38.000Z</time>
      </trkpt>
      <trkpt lat="43.63333" lon="6.78213">
        <ele>384</ele>
        <time>2020-03-01T10:45:45.000Z</time>
      </trkpt>
      <trkpt lat="43.63342" lon="6.78208">
        <ele>384</ele>
        <time>2020-03-01T10:45:52.000Z</time>
      </trkpt>
      <trkpt lat="43.63352" lon="6.78208">
        <ele>384</ele>
        <time>2020-03-01T10:45:59.000Z</time>
      </trkpt>
      <trkpt lat="43.63362" lon="6.78207">
        <ele>383.8</ele>
        <time>2020-03-01T10:46:07.000Z</time>
      </trkpt>
      <trkpt lat="43.63372" lon="6.78207">
        <ele>381.9</ele>
        <time>2020-03-01T10:46:14.000Z</time>
      </trkpt>
      <trkpt lat="43.63382" lon="6.78209">
        <ele>381.6</ele>
        <time>2020-03-01T10:46:21.000Z</time>
      </trkpt>
      <trkpt lat="43.63391" lon="6.78211">
        <ele>383.5</ele>
        <time>2020-03-01T10:46:28.000Z</time>
      </trkpt>
      <trkpt lat="43.634" lon="6.78211">
        <ele>384</ele>
        <time>2020-03-01T10:46:32.000Z</time>
      </trkpt>
      <trkpt lat="43.63409" lon="6.78212">
        <ele>385.2</ele>
        <time>2020-03-01T10:46:39.000Z</time>
      </trkpt>
      <trkpt lat="43.63419" lon="6.78213">
        <ele>385.6</ele>
        <time>2020-03-01T10:46:58.000Z</time>
      </trkpt>
      <trkpt lat="43.63428" lon="6.78212">
        <ele>385.8</ele>
        <time>2020-03-01T10:47:05.000Z</time>
      </trkpt>
      <trkpt lat="43.63438" lon="6.78213">
        <ele>385.6</ele>
        <time>2020-03-01T10:47:13.000Z</time>
      </trkpt>
      <trkpt lat="43.63448" lon="6.78214">
        <ele>385.5</ele>
        <time>2020-03-01T10:47:20.000Z</time>
      </trkpt>
      <trkpt lat="43.63458" lon="6.78214">
        <ele>384.9</ele>
        <time>2020-03-01T10:47:27.000Z</time>
      </trkpt>
      <trkpt lat="43.63467" lon="6.78215">
        <ele>384.3</ele>
        <time>2020-03-01T10:47:34.000Z</time>
      </trkpt>
      <trkpt lat="43.63477" lon="6.78214">
        <ele>384.1</ele>
        <time>2020-03-01T10:47:42.000Z</time>
      </trkpt>
      <trkpt lat="43.63487" lon="6.78211">
        <ele>383.6</ele>
        <time>2020-03-01T10:47:50.000Z</time>
      </trkpt>
      <trkpt lat="43.63497" lon="6.78209">
        <ele>382.5</ele>
        <time>2020-03-01T10:47:59.000Z</time>
      </trkpt>
      <trkpt lat="43.63506" lon="6.78208">
        <ele>381.9</ele>
        <time>2020-03-01T10:48:07.000Z</time>
      </trkpt>
      <trkpt lat="43.63515" lon="6.78211">
        <ele>381.6</ele>
        <time>2020-03-01T10:48:13.000Z</time>
      </trkpt>
      <trkpt lat="43.63524" lon="6.78216">
        <ele>381.1</ele>
        <time>2020-03-01T10:48:21.000Z</time>
      </trkpt>
      <trkpt lat="43.63533" lon="6.7822">
        <ele>380.8</ele>
        <time>2020-03-01T10:48:30.000Z</time>
      </trkpt>
      <trkpt lat="43.63542" lon="6.78226">
        <ele>380.3</ele>
        <time>2020-03-01T10:48:39.000Z</time>
      </trkpt>
      <trkpt lat="43.63551" lon="6.78228">
        <ele>379.9</ele>
        <time>2020-03-01T10:48:48.000Z</time>
      </trkpt>
      <trkpt lat="43.6356" lon="6.78232">
        <ele>379.2</ele>
        <time>2020-03-01T10:48:54.000Z</time>
      </trkpt>
      <trkpt lat="43.63569" lon="6.78235">
        <ele>379</ele>
        <time>2020-03-01T10:49:02.000Z</time>
      </trkpt>
      <trkpt lat="43.63579" lon="6.78237">
        <ele>380</ele>
        <time>2020-03-01T10:49:12.000Z</time>
      </trkpt>
      <trkpt lat="43.63588" lon="6.78241">
        <ele>379.9</ele>
        <time>2020-03-01T10:49:20.000Z</time>
      </trkpt>
      <trkpt lat="43.63596" lon="6.78246">
        <ele>379.8</ele>
        <time>2020-03-01T10:49:27.000Z</time>
      </trkpt>
      <trkpt lat="43.63605" lon="6.78252">
        <ele>379.4</ele>
        <time>2020-03-01T10:49:36.000Z</time>
      </trkpt>
      <trkpt lat="43.63614" lon="6.78259">
        <ele>379.2</ele>
        <time>2020-03-01T10:49:45.000Z</time>
      </trkpt>
      <trkpt lat="43.63622" lon="6.78264">
        <ele>378.9</ele>
        <time>2020-03-01T10:49:54.000Z</time>
      </trkpt>
      <trkpt lat="43.63632" lon="6.78267">
        <ele>378.4</ele>
        <time>2020-03-01T10:50:03.000Z</time>
      </trkpt>
      <trkpt lat="43.63642" lon="6.7827">
        <ele>378.8</ele>
        <time>2020-03-01T10:50:12.000Z</time>
      </trkpt>
      <trkpt lat="43.63649" lon="6.78278">
        <ele>378.4</ele>
        <time>2020-03-01T10:50:20.000Z</time>
      </trkpt>
      <trkpt lat="43.63657" lon="6.78285">
        <ele>377.5</ele>
        <time>2020-03-01T10:50:30.000Z</time>
      </trkpt>
      <trkpt lat="43.63664" lon="6.78293">
        <ele>377.8</ele>
        <time>2020-03-01T10:50:40.000Z</time>
      </trkpt>
      <trkpt lat="43.63672" lon="6.78301">
        <ele>378</ele>
        <time>2020-03-01T10:50:48.000Z</time>
      </trkpt>
      <trkpt lat="43.63682" lon="6.78304">
        <ele>377.8</ele>
        <time>2020-03-01T10:50:56.000Z</time>
      </trkpt>
      <trkpt lat="43.6369" lon="6.78312">
        <ele>378.2</ele>
        <time>2020-03-01T10:51:04.000Z</time>
      </trkpt>
      <trkpt lat="43.637" lon="6.78317">
        <ele>378.7</ele>
        <time>2020-03-01T10:51:13.000Z</time>
      </trkpt>
      <trkpt lat="43.63709" lon="6.78321">
        <ele>379.4</ele>
        <time>2020-03-01T10:51:20.000Z</time>
      </trkpt>
      <trkpt lat="43.63717" lon="6.78327">
        <ele>379.7</ele>
        <time>2020-03-01T10:51:29.000Z</time>
      </trkpt>
      <trkpt lat="43.63726" lon="6.78335">
        <ele>379.7</ele>
        <time>2020-03-01T10:51:38.000Z</time>
      </trkpt>
      <trkpt lat="43.63735" lon="6.78341">
        <ele>379.5</ele>
        <time>2020-03-01T10:51:46.000Z</time>
      </trkpt>
      <trkpt lat="43.63744" lon="6.78344">
        <ele>377.8</ele>
        <time>2020-03-01T10:51:56.000Z</time>
      </trkpt>
      <trkpt lat="43.63753" lon="6.78347">
        <ele>376.9</ele>
        <time>2020-03-01T10:52:04.000Z</time>
      </trkpt>
      <trkpt lat="43.63761" lon="6.78354">
        <ele>376.2</ele>
        <time>2020-03-01T10:52:12.000Z</time>
      </trkpt>
      <trkpt lat="43.63771" lon="6.78359">
        <ele>375.1</ele>
        <time>2020-03-01T10:52:21.000Z</time>
      </trkpt>
      <trkpt lat="43.6378" lon="6.7836">
        <ele>374.9</ele>
        <time>2020-03-01T10:52:30.000Z</time>
      </trkpt>
      <trkpt lat="43.63789" lon="6.78358">
        <ele>374.2</ele>
        <time>2020-03-01T10:52:38.000Z</time>
      </trkpt>
      <trkpt lat="43.63798" lon="6.78353">
        <ele>374.1</ele>
        <time>2020-03-01T10:52:46.000Z</time>
      </trkpt>
      <trkpt lat="43.63807" lon="6.7835">
        <ele>374</ele>
        <time>2020-03-01T10:52:53.000Z</time>
      </trkpt>
      <trkpt lat="43.63816" lon="6.78345">
        <ele>374.3</ele>
        <time>2020-03-01T10:53:01.000Z</time>
      </trkpt>
      <trkpt lat="43.63824" lon="6.7834">
        <ele>374.2</ele>
        <time>2020-03-01T10:53:09.000Z</time>
      </trkpt>
      <trkpt lat="43.63834" lon="6.78335">
        <ele>373.9</ele>
        <time>2020-03-01T10:53:18.000Z</time>
      </trkpt>
      <trkpt lat="43.63844" lon="6.78334">
        <ele>373.6</ele>
        <time>2020-03-01T10:53:26.000Z</time>
      </trkpt>
      <trkpt lat="43.63854" lon="6.78334">
        <ele>374.4</ele>
        <time>2020-03-01T10:53:36.000Z</time>
      </trkpt>
      <trkpt lat="43.63863" lon="6.78333">
        <ele>374.4</ele>
        <time>2020-03-01T10:53:44.000Z</time>
      </trkpt>
      <trkpt lat="43.63872" lon="6.78334">
        <ele>374.4</ele>
        <time>2020-03-01T10:53:51.000Z</time>
      </trkpt>
      <trkpt lat="43.63882" lon="6.78332">
        <ele>374.7</ele>
        <time>2020-03-01T10:54:01.000Z</time>
      </trkpt>
      <trkpt lat="43.63891" lon="6.78328">
        <ele>373.8</ele>
        <time>2020-03-01T10:54:09.000Z</time>
      </trkpt>
      <trkpt lat="43.639" lon="6.78324">
        <ele>373.8</ele>
        <time>2020-03-01T10:54:18.000Z</time>
      </trkpt>
      <trkpt lat="43.63909" lon="6.78321">
        <ele>374.1</ele>
        <time>2020-03-01T10:54:25.000Z</time>
      </trkpt>
      <trkpt lat="43.63918" lon="6.78317">
        <ele>374.6</ele>
        <time>2020-03-01T10:54:32.000Z</time>
      </trkpt>
      <trkpt lat="43.63927" lon="6.78316">
        <ele>375.9</ele>
        <time>2020-03-01T10:54:40.000Z</time>
      </trkpt>
      <trkpt lat="43.63937" lon="6.78319">
        <ele>377.4</ele>
        <time>2020-03-01T10:54:47.000Z</time>
      </trkpt>
      <trkpt lat="43.63946" lon="6.78324">
        <ele>377.9</ele>
        <time>2020-03-01T10:54:54.000Z</time>
      </trkpt>
      <trkpt lat="43.63954" lon="6.78332">
        <ele>378.1</ele>
        <time>2020-03-01T10:55:02.000Z</time>
      </trkpt>
      <trkpt lat="43.63953" lon="6.78345">
        <ele>377.5</ele>
        <time>2020-03-01T10:55:11.000Z</time>
      </trkpt>
      <trkpt lat="43.63954" lon="6.78359">
        <ele>376.3</ele>
        <time>2020-03-01T10:55:21.000Z</time>
      </trkpt>
      <trkpt lat="43.6396" lon="6.78369">
        <ele>376.7</ele>
        <time>2020-03-01T10:55:33.000Z</time>
      </trkpt>
      <trkpt lat="43.63959" lon="6.78383">
        <ele>376.8</ele>
        <time>2020-03-01T10:55:42.000Z</time>
      </trkpt>
      <trkpt lat="43.63961" lon="6.78396">
        <ele>377.1</ele>
        <time>2020-03-01T10:55:50.000Z</time>
      </trkpt>
      <trkpt lat="43.63962" lon="6.78409">
        <ele>377.8</ele>
        <time>2020-03-01T10:55:59.000Z</time>
      </trkpt>
      <trkpt lat="43.63963" lon="6.78423">
        <ele>377.8</ele>
        <time>2020-03-01T10:56:08.000Z</time>
      </trkpt>
      <trkpt lat="43.63963" lon="6.78436">
        <ele>377.9</ele>
        <time>2020-03-01T10:56:18.000Z</time>
      </trkpt>
      <trkpt lat="43.63963" lon="6.78448">
        <ele>377.6</ele>
        <time>2020-03-01T10:56:29.000Z</time>
      </trkpt>
      <trkpt lat="43.63968" lon="6.7846">
        <ele>377.9</ele>
        <time>2020-03-01T10:56:37.000Z</time>
      </trkpt>
      <trkpt lat="43.6397" lon="6.78474">
        <ele>377.5</ele>
        <time>2020-03-01T10:56:43.000Z</time>
      </trkpt>
      <trkpt lat="43.6397" lon="6.78487">
        <ele>377.7</ele>
        <time>2020-03-01T10:56:50.000Z</time>
      </trkpt>
      <trkpt lat="43.63968" lon="6.78499">
        <ele>377.5</ele>
        <time>2020-03-01T10:56:58.000Z</time>
      </trkpt>
      <trkpt lat="43.63965" lon="6.78512">
        <ele>377.1</ele>
        <time>2020-03-01T10:57:07.000Z</time>
      </trkpt>
      <trkpt lat="43.63963" lon="6.78525">
        <ele>376.4</ele>
        <time>2020-03-01T10:57:16.000Z</time>
      </trkpt>
      <trkpt lat="43.63965" lon="6.78537">
        <ele>376</ele>
        <time>2020-03-01T10:57:23.000Z</time>
      </trkpt>
      <trkpt lat="43.63967" lon="6.7855">
        <ele>375.3</ele>
        <time>2020-03-01T10:57:31.000Z</time>
      </trkpt>
      <trkpt lat="43.63968" lon="6.78564">
        <ele>374.7</ele>
        <time>2020-03-01T10:57:39.000Z</time>
      </trkpt>
      <trkpt lat="43.63968" lon="6.78576">
        <ele>373.8</ele>
        <time>2020-03-01T10:57:48.000Z</time>
      </trkpt>
      <trkpt lat="43.6397" lon="6.78589">
        <ele>372.6</ele>
        <time>2020-03-01T10:57:58.000Z</time>
      </trkpt>
      <trkpt lat="43.63971" lon="6.78603">
        <ele>371.8</ele>
        <time>2020-03-01T10:58:06.000Z</time>
      </trkpt>
      <trkpt lat="43.6397" lon="6.78616">
        <ele>370.9</ele>
        <time>2020-03-01T10:58:15.000Z</time>
      </trkpt>
      <trkpt lat="43.63972" lon="6.78629">
        <ele>370.2</ele>
        <time>2020-03-01T10:58:23.000Z</time>
      </trkpt>
      <trkpt lat="43.63972" lon="6.78642">
        <ele>370.8</ele>
        <time>2020-03-01T10:58:34.000Z</time>
      </trkpt>
      <trkpt lat="43.63975" lon="6.78654">
        <ele>370.5</ele>
        <time>2020-03-01T10:58:44.000Z</time>
      </trkpt>
      <trkpt lat="43.63973" lon="6.78667">
        <ele>370.1</ele>
        <time>2020-03-01T10:58:54.000Z</time>
      </trkpt>
      <trkpt lat="43.63974" lon="6.78679">
        <ele>370.3</ele>
        <time>2020-03-01T10:59:05.000Z</time>
      </trkpt>
      <trkpt lat="43.63976" lon="6.78692">
        <ele>370.2</ele>
        <time>2020-03-01T10:59:23.000Z</time>
      </trkpt>
      <trkpt lat="43.63979" lon="6.78705">
        <ele>367.6</ele>
        <time>2020-03-01T10:59:37.000Z</time>
      </trkpt>
      <trkpt lat="43.63978" lon="6.78717">
        <ele>364.9</ele>
        <time>2020-03-01T10:59:49.000Z</time>
      </trkpt>
      <trkpt lat="43.63981" lon="6.78729">
        <ele>363.3</ele>
        <time>2020-03-01T10:59:58.000Z</time>
      </trkpt>
      <trkpt lat="43.63987" lon="6.78739">
        <ele>361.8</ele>
        <time>2020-03-01T11:00:07.000Z</time>
      </trkpt>
      <trkpt lat="43.63995" lon="6.78746">
        <ele>360.1</ele>
        <time>2020-03-01T11:00:31.000Z</time>
      </trkpt>
      <trkpt lat="43.64004" lon="6.78749">
        <ele>359.7</ele>
        <time>2020-03-01T11:00:41.000Z</time>
      </trkpt>
      <trkpt lat="43.64014" lon="6.78748">
        <ele>358.4</ele>
        <time>2020-03-01T11:01:08.000Z</time>
      </trkpt>
      <trkpt lat="43.64022" lon="6.78743">
        <ele>358.3</ele>
        <time>2020-03-01T11:01:16.000Z</time>
      </trkpt>
      <trkpt lat="43.64032" lon="6.78744">
        <ele>358.7</ele>
        <time>2020-03-01T11:01:25.000Z</time>
      </trkpt>
      <trkpt lat="43.64032" lon="6.78757">
        <ele>359.3</ele>
        <time>2020-03-01T11:01:39.000Z</time>
      </trkpt>
      <trkpt lat="43.64027" lon="6.78768">
        <ele>358.2</ele>
        <time>2020-03-01T11:01:54.000Z</time>
      </trkpt>
      <trkpt lat="43.64022" lon="6.78779">
        <ele>356.6</ele>
        <time>2020-03-01T11:02:07.000Z</time>
      </trkpt>
      <trkpt lat="43.64017" lon="6.78802">
        <ele>352.7</ele>
        <time>2020-03-01T11:02:33.000Z</time>
      </trkpt>
      <trkpt lat="43.64025" lon="6.78794">
        <ele>351.5</ele>
        <time>2020-03-01T11:02:47.000Z</time>
      </trkpt>
      <trkpt lat="43.64033" lon="6.78784">
        <ele>350.3</ele>
        <time>2020-03-01T11:02:59.000Z</time>
      </trkpt>
      <trkpt lat="43.64039" lon="6.78775">
        <ele>349.1</ele>
        <time>2020-03-01T11:03:11.000Z</time>
      </trkpt>
      <trkpt lat="43.64048" lon="6.78771">
        <ele>348.3</ele>
        <time>2020-03-01T11:03:26.000Z</time>
      </trkpt>
      <trkpt lat="43.64056" lon="6.78764">
        <ele>348.1</ele>
        <time>2020-03-01T11:03:30.000Z</time>
      </trkpt>
      <trkpt lat="43.64062" lon="6.78755">
        <ele>345.2</ele>
        <time>2020-03-01T11:03:43.000Z</time>
      </trkpt>
      <trkpt lat="43.64071" lon="6.78749">
        <ele>341.4</ele>
        <time>2020-03-01T11:03:51.000Z</time>
      </trkpt>
      <trkpt lat="43.64083" lon="6.78749">
        <ele>336.7</ele>
        <time>2020-03-01T11:04:07.000Z</time>
      </trkpt>
      <trkpt lat="43.64093" lon="6.78747">
        <ele>335.2</ele>
        <time>2020-03-01T11:04:19.000Z</time>
      </trkpt>
      <trkpt lat="43.64089" lon="6.78759">
        <ele>333.1</ele>
        <time>2020-03-01T11:05:00.000Z</time>
      </trkpt>
      <trkpt lat="43.64096" lon="6.78769">
        <ele>330.9</ele>
        <time>2020-03-01T11:05:13.000Z</time>
      </trkpt>
      <trkpt lat="43.64105" lon="6.7877">
        <ele>328.9</ele>
        <time>2020-03-01T11:05:23.000Z</time>
      </trkpt>
      <trkpt lat="43.64114" lon="6.78771">
        <ele>328</ele>
        <time>2020-03-01T11:05:38.000Z</time>
      </trkpt>
      <trkpt lat="43.64122" lon="6.78765">
        <ele>327.2</ele>
        <time>2020-03-01T11:05:51.000Z</time>
      </trkpt>
      <trkpt lat="43.64131" lon="6.78762">
        <ele>326.3</ele>
        <time>2020-03-01T11:06:00.000Z</time>
      </trkpt>
      <trkpt lat="43.64139" lon="6.78753">
        <ele>324</ele>
        <time>2020-03-01T11:06:14.000Z</time>
      </trkpt>
      <trkpt lat="43.64146" lon="6.78746">
        <ele>321.9</ele>
        <time>2020-03-01T11:06:25.000Z</time>
      </trkpt>
      <trkpt lat="43.64151" lon="6.78735">
        <ele>319.6</ele>
        <time>2020-03-01T11:06:36.000Z</time>
      </trkpt>
      <trkpt lat="43.64159" lon="6.78728">
        <ele>317.5</ele>
        <time>2020-03-01T11:06:43.000Z</time>
      </trkpt>
      <trkpt lat="43.64168" lon="6.78719">
        <ele>315.7</ele>
        <time>2020-03-01T11:06:50.000Z</time>
      </trkpt>
      <trkpt lat="43.64175" lon="6.78711">
        <ele>312.9</ele>
        <time>2020-03-01T11:07:06.000Z</time>
      </trkpt>
      <trkpt lat="43.64183" lon="6.78706">
        <ele>311.7</ele>
        <time>2020-03-01T11:07:15.000Z</time>
      </trkpt>
      <trkpt lat="43.64192" lon="6.78701">
        <ele>310.7</ele>
        <time>2020-03-01T11:07:20.000Z</time>
      </trkpt>
      <trkpt lat="43.64199" lon="6.78691">
        <ele>308.8</ele>
        <time>2020-03-01T11:07:27.000Z</time>
      </trkpt>
      <trkpt lat="43.64204" lon="6.7868">
        <ele>306.4</ele>
        <time>2020-03-01T11:07:36.000Z</time>
      </trkpt>
      <trkpt lat="43.64212" lon="6.78674">
        <ele>304.8</ele>
        <time>2020-03-01T11:07:42.000Z</time>
      </trkpt>
      <trkpt lat="43.64221" lon="6.78666">
        <ele>304.5</ele>
        <time>2020-03-01T11:08:00.000Z</time>
      </trkpt>
      <trkpt lat="43.6423" lon="6.78664">
        <ele>303.9</ele>
        <time>2020-03-01T11:08:09.000Z</time>
      </trkpt>
      <trkpt lat="43.64239" lon="6.78666">
        <ele>303.9</ele>
        <time>2020-03-01T11:08:24.000Z</time>
      </trkpt>
      <trkpt lat="43.64249" lon="6.78666">
        <ele>303.8</ele>
        <time>2020-03-01T11:08:30.000Z</time>
      </trkpt>
      <trkpt lat="43.64257" lon="6.78662">
        <ele>302.7</ele>
        <time>2020-03-01T11:08:39.000Z</time>
      </trkpt>
      <trkpt lat="43.64266" lon="6.78655">
        <ele>300.7</ele>
        <time>2020-03-01T11:08:51.000Z</time>
      </trkpt>
      <trkpt lat="43.64274" lon="6.78647">
        <ele>299</ele>
        <time>2020-03-01T11:09:04.000Z</time>
      </trkpt>
      <trkpt lat="43.64282" lon="6.78641">
        <ele>299.2</ele>
        <time>2020-03-01T11:09:16.000Z</time>
      </trkpt>
      <trkpt lat="43.64292" lon="6.78639">
        <ele>299.5</ele>
        <time>2020-03-01T11:09:28.000Z</time>
      </trkpt>
      <trkpt lat="43.643" lon="6.78633">
        <ele>299.8</ele>
        <time>2020-03-01T11:09:44.000Z</time>
      </trkpt>
      <trkpt lat="43.64308" lon="6.7864">
        <ele>299.1</ele>
        <time>2020-03-01T11:10:22.000Z</time>
      </trkpt>
      <trkpt lat="43.64318" lon="6.78642">
        <ele>298.3</ele>
        <time>2020-03-01T11:10:34.000Z</time>
      </trkpt>
      <trkpt lat="43.64327" lon="6.78644">
        <ele>296</ele>
        <time>2020-03-01T11:10:45.000Z</time>
      </trkpt>
      <trkpt lat="43.64319" lon="6.7865">
        <ele>291.5</ele>
        <time>2020-03-01T11:11:05.000Z</time>
      </trkpt>
      <trkpt lat="43.64312" lon="6.78659">
        <ele>286.4</ele>
        <time>2020-03-01T11:11:34.000Z</time>
      </trkpt>
      <trkpt lat="43.64304" lon="6.78666">
        <ele>285.4</ele>
        <time>2020-03-01T11:11:44.000Z</time>
      </trkpt>
      <trkpt lat="43.64298" lon="6.78679">
        <ele>284.3</ele>
        <time>2020-03-01T11:11:55.000Z</time>
      </trkpt>
      <trkpt lat="43.64292" lon="6.78689">
        <ele>283.4</ele>
        <time>2020-03-01T11:12:04.000Z</time>
      </trkpt>
      <trkpt lat="43.64288" lon="6.78706">
        <ele>280.7</ele>
        <time>2020-03-01T11:12:20.000Z</time>
      </trkpt>
      <trkpt lat="43.64285" lon="6.78718">
        <ele>278.5</ele>
        <time>2020-03-01T11:12:34.000Z</time>
      </trkpt>
      <trkpt lat="43.64283" lon="6.7873">
        <ele>275.9</ele>
        <time>2020-03-01T11:12:51.000Z</time>
      </trkpt>
      <trkpt lat="43.64276" lon="6.7874">
        <ele>272.3</ele>
        <time>2020-03-01T11:13:14.000Z</time>
      </trkpt>
      <trkpt lat="43.64278" lon="6.78752">
        <ele>266.2</ele>
        <time>2020-03-01T11:13:54.000Z</time>
      </trkpt>
      <trkpt lat="43.64274" lon="6.78768">
        <ele>263.8</ele>
        <time>2020-03-01T11:14:26.000Z</time>
      </trkpt>
      <trkpt lat="43.64276" lon="6.7878">
        <ele>262.1</ele>
        <time>2020-03-01T11:14:35.000Z</time>
      </trkpt>
      <trkpt lat="43.64277" lon="6.78792">
        <ele>251</ele>
        <time>2020-03-01T11:15:31.000Z</time>
      </trkpt>
      <trkpt lat="43.6427" lon="6.78802">
        <ele>248</ele>
        <time>2020-03-01T11:15:46.000Z</time>
      </trkpt>
      <trkpt lat="43.64266" lon="6.78814">
        <ele>246.2</ele>
        <time>2020-03-01T11:16:00.000Z</time>
      </trkpt>
      <trkpt lat="43.64257" lon="6.78819">
        <ele>244.8</ele>
        <time>2020-03-01T11:16:10.000Z</time>
      </trkpt>
      <trkpt lat="43.64249" lon="6.78826">
        <ele>242.4</ele>
        <time>2020-03-01T11:16:23.000Z</time>
      </trkpt>
      <trkpt lat="43.64246" lon="6.78838">
        <ele>241.2</ele>
        <time>2020-03-01T11:16:36.000Z</time>
      </trkpt>
      <trkpt lat="43.64247" lon="6.78851">
        <ele>239.2</ele>
        <time>2020-03-01T11:16:48.000Z</time>
      </trkpt>
      <trkpt lat="43.6424" lon="6.7887">
        <ele>236</ele>
        <time>2020-03-01T11:17:10.000Z</time>
      </trkpt>
      <trkpt lat="43.64237" lon="6.78883">
        <ele>233.9</ele>
        <time>2020-03-01T11:17:25.000Z</time>
      </trkpt>
      <trkpt lat="43.64235" lon="6.78895">
        <ele>231.7</ele>
        <time>2020-03-01T11:17:38.000Z</time>
      </trkpt>
      <trkpt lat="43.64232" lon="6.78907">
        <ele>230.7</ele>
        <time>2020-03-01T11:17:52.000Z</time>
      </trkpt>
      <trkpt lat="43.64227" lon="6.7892">
        <ele>227</ele>
        <time>2020-03-01T11:18:11.000Z</time>
      </trkpt>
      <trkpt lat="43.64226" lon="6.78933">
        <ele>224.4</ele>
        <time>2020-03-01T11:18:26.000Z</time>
      </trkpt>
      <trkpt lat="43.64221" lon="6.78945">
        <ele>222</ele>
        <time>2020-03-01T11:18:37.000Z</time>
      </trkpt>
      <trkpt lat="43.64217" lon="6.78964">
        <ele>218.2</ele>
        <time>2020-03-01T11:19:20.000Z</time>
      </trkpt>
      <trkpt lat="43.64225" lon="6.78957">
        <ele>213.8</ele>
        <time>2020-03-01T11:19:37.000Z</time>
      </trkpt>
      <trkpt lat="43.64229" lon="6.78969">
        <ele>206.8</ele>
        <time>2020-03-01T11:19:58.000Z</time>
      </trkpt>
      <trkpt lat="43.64234" lon="6.78979">
        <ele>203.7</ele>
        <time>2020-03-01T11:20:45.000Z</time>
      </trkpt>
      <trkpt lat="43.64243" lon="6.78974">
        <ele>203.1</ele>
        <time>2020-03-01T11:20:58.000Z</time>
      </trkpt>
      <trkpt lat="43.64256" lon="6.78982">
        <ele>199.5</ele>
        <time>2020-03-01T11:22:02.000Z</time>
      </trkpt>
      <trkpt lat="43.64264" lon="6.78988">
        <ele>199.2</ele>
        <time>2020-03-01T11:22:13.000Z</time>
      </trkpt>
      <trkpt lat="43.6427" lon="6.78998">
        <ele>197.7</ele>
        <time>2020-03-01T11:22:29.000Z</time>
      </trkpt>
      <trkpt lat="43.64279" lon="6.79005">
        <ele>196.2</ele>
        <time>2020-03-01T11:22:54.000Z</time>
      </trkpt>
      <trkpt lat="43.64287" lon="6.78998">
        <ele>194.7</ele>
        <time>2020-03-01T11:23:07.000Z</time>
      </trkpt>
      <trkpt lat="43.64283" lon="6.7901">
        <ele>193.5</ele>
        <time>2020-03-01T11:23:22.000Z</time>
      </trkpt>
      <trkpt lat="43.64291" lon="6.79018">
        <ele>184.8</ele>
        <time>2020-03-01T11:24:50.000Z</time>
      </trkpt>
      <trkpt lat="43.64297" lon="6.79028">
        <ele>184.4</ele>
        <time>2020-03-01T11:24:55.000Z</time>
      </trkpt>
      <trkpt lat="43.64301" lon="6.7904">
        <ele>183.9</ele>
        <time>2020-03-01T11:25:01.000Z</time>
      </trkpt>
      <trkpt lat="43.64296" lon="6.79028">
        <ele>178.8</ele>
        <time>2020-03-01T11:25:29.000Z</time>
      </trkpt>
      <trkpt lat="43.64291" lon="6.79017">
        <ele>178.1</ele>
        <time>2020-03-01T11:25:43.000Z</time>
      </trkpt>
      <trkpt lat="43.64284" lon="6.79009">
        <ele>174.7</ele>
        <time>2020-03-01T11:26:25.000Z</time>
      </trkpt>
      <trkpt lat="43.64281" lon="6.78995">
        <ele>176.7</ele>
        <time>2020-03-01T11:28:36.000Z</time>
      </trkpt>
      <trkpt lat="43.64288" lon="6.78986">
        <ele>177.2</ele>
        <time>2020-03-01T11:28:46.000Z</time>
      </trkpt>
      <trkpt lat="43.64296" lon="6.78981">
        <ele>176</ele>
        <time>2020-03-01T11:29:12.000Z</time>
      </trkpt>
      <trkpt lat="43.64304" lon="6.78987">
        <ele>176.1</ele>
        <time>2020-03-01T11:29:21.000Z</time>
      </trkpt>
      <trkpt lat="43.64299" lon="6.78996">
        <ele>168.2</ele>
        <time>2020-03-01T11:30:10.000Z</time>
      </trkpt>
      <trkpt lat="43.64307" lon="6.79005">
        <ele>168.4</ele>
        <time>2020-03-01T11:30:31.000Z</time>
      </trkpt>
      <trkpt lat="43.64314" lon="6.79015">
        <ele>168.1</ele>
        <time>2020-03-01T11:30:40.000Z</time>
      </trkpt>
      <trkpt lat="43.64321" lon="6.79008">
        <ele>167.8</ele>
        <time>2020-03-01T11:31:49.000Z</time>
      </trkpt>
      <trkpt lat="43.64328" lon="6.79016">
        <ele>167.6</ele>
        <time>2020-03-01T11:32:11.000Z</time>
      </trkpt>
      <trkpt lat="43.64331" lon="6.79028">
        <ele>168.4</ele>
        <time>2020-03-01T11:32:27.000Z</time>
      </trkpt>
      <trkpt lat="43.64334" lon="6.7904">
        <ele>170.3</ele>
        <time>2020-03-01T11:32:36.000Z</time>
      </trkpt>
      <trkpt lat="43.64339" lon="6.79052">
        <ele>171.6</ele>
        <time>2020-03-01T11:32:45.000Z</time>
      </trkpt>
      <trkpt lat="43.64342" lon="6.79064">
        <ele>171.4</ele>
        <time>2020-03-01T11:32:54.000Z</time>
      </trkpt>
      <trkpt lat="43.64335" lon="6.79054">
        <ele>169.9</ele>
        <time>2020-03-01T11:33:07.000Z</time>
      </trkpt>
      <trkpt lat="43.64331" lon="6.79042">
        <ele>169.6</ele>
        <time>2020-03-01T11:33:15.000Z</time>
      </trkpt>
      <trkpt lat="43.64322" lon="6.7904">
        <ele>168.2</ele>
        <time>2020-03-01T11:33:32.000Z</time>
      </trkpt>
      <trkpt lat="43.64311" lon="6.79043">
        <ele>167.3</ele>
        <time>2020-03-01T11:33:56.000Z</time>
      </trkpt>
      <trkpt lat="43.64301" lon="6.79038">
        <ele>167.9</ele>
        <time>2020-03-01T11:34:01.000Z</time>
      </trkpt>
      <trkpt lat="43.64308" lon="6.79025">
        <ele>167.7</ele>
        <time>2020-03-01T11:34:07.000Z</time>
      </trkpt>
      <trkpt lat="43.64321" lon="6.79018">
        <ele>167.4</ele>
        <time>2020-03-01T11:34:10.000Z</time>
      </trkpt>
      <trkpt lat="43.64326" lon="6.79032">
        <ele>165.6</ele>
        <time>2020-03-01T11:34:15.000Z</time>
      </trkpt>
      <trkpt lat="43.64327" lon="6.79046">
        <ele>164.4</ele>
        <time>2020-03-01T11:34:24.000Z</time>
      </trkpt>
      <trkpt lat="43.64318" lon="6.79042">
        <ele>163.1</ele>
        <time>2020-03-01T11:34:42.000Z</time>
      </trkpt>
      <trkpt lat="43.64328" lon="6.79036">
        <ele>160.4</ele>
        <time>2020-03-01T11:35:34.000Z</time>
      </trkpt>
      <trkpt lat="43.64336" lon="6.79044">
        <ele>161.3</ele>
        <time>2020-03-01T11:35:39.000Z</time>
      </trkpt>
      <trkpt lat="43.64345" lon="6.79052">
        <ele>161</ele>
        <time>2020-03-01T11:35:45.000Z</time>
      </trkpt>
      <trkpt lat="43.6435" lon="6.79063">
        <ele>162.3</ele>
        <time>2020-03-01T11:35:54.000Z</time>
      </trkpt>
      <trkpt lat="43.64339" lon="6.79065">
        <ele>162.3</ele>
        <time>2020-03-01T11:36:19.000Z</time>
      </trkpt>
      <trkpt lat="43.6434" lon="6.79078">
        <ele>159.8</ele>
        <time>2020-03-01T11:36:30.000Z</time>
      </trkpt>
      <trkpt lat="43.64339" lon="6.79064">
        <ele>158.6</ele>
        <time>2020-03-01T11:36:53.000Z</time>
      </trkpt>
      <trkpt lat="43.64348" lon="6.79067">
        <ele>157.4</ele>
        <time>2020-03-01T11:37:06.000Z</time>
      </trkpt>
      <trkpt lat="43.64352" lon="6.79078">
        <ele>156.5</ele>
        <time>2020-03-01T11:37:18.000Z</time>
      </trkpt>
      <trkpt lat="43.64359" lon="6.79071">
        <ele>159.5</ele>
        <time>2020-03-01T11:37:48.000Z</time>
      </trkpt>
      <trkpt lat="43.64349" lon="6.79074">
        <ele>158.9</ele>
        <time>2020-03-01T11:38:02.000Z</time>
      </trkpt>
      <trkpt lat="43.64352" lon="6.79089">
        <ele>157.2</ele>
        <time>2020-03-01T11:38:28.000Z</time>
      </trkpt>
      <trkpt lat="43.64347" lon="6.7908">
        <ele>156.5</ele>
        <time>2020-03-01T11:39:00.000Z</time>
      </trkpt>
      <trkpt lat="43.64338" lon="6.79073">
        <ele>156.2</ele>
        <time>2020-03-01T11:39:08.000Z</time>
      </trkpt>
      <trkpt lat="43.64344" lon="6.79064">
        <ele>156.2</ele>
        <time>2020-03-01T11:39:34.000Z</time>
      </trkpt>
      <trkpt lat="43.64349" lon="6.7908">
        <ele>160.1</ele>
        <time>2020-03-01T11:43:44.000Z</time>
      </trkpt>
      <trkpt lat="43.64358" lon="6.79085">
        <ele>160.8</ele>
        <time>2020-03-01T11:44:22.000Z</time>
      </trkpt>
      <trkpt lat="43.64344" lon="6.79079">
        <ele>154.5</ele>
        <time>2020-03-01T11:44:56.000Z</time>
      </trkpt>
      <trkpt lat="43.6435" lon="6.79069">
        <ele>155.9</ele>
        <time>2020-03-01T11:45:50.000Z</time>
      </trkpt>
      <trkpt lat="43.64359" lon="6.79074">
        <ele>157.2</ele>
        <time>2020-03-01T11:46:01.000Z</time>
      </trkpt>
      <trkpt lat="43.64354" lon="6.79084">
        <ele>157.2</ele>
        <time>2020-03-01T11:47:05.000Z</time>
      </trkpt>
      <trkpt lat="43.64362" lon="6.79092">
        <ele>154.7</ele>
        <time>2020-03-01T11:50:20.000Z</time>
      </trkpt>
      <trkpt lat="43.64357" lon="6.7908">
        <ele>156.1</ele>
        <time>2020-03-01T11:50:36.000Z</time>
      </trkpt>
      <trkpt lat="43.64349" lon="6.79074">
        <ele>159</ele>
        <time>2020-03-01T11:50:43.000Z</time>
      </trkpt>
      <trkpt lat="43.64341" lon="6.79068">
        <ele>163.8</ele>
        <time>2020-03-01T11:51:05.000Z</time>
      </trkpt>
      <trkpt lat="43.64339" lon="6.79056">
        <ele>163.9</ele>
        <time>2020-03-01T11:51:54.000Z</time>
      </trkpt>
      <trkpt lat="43.64333" lon="6.79046">
        <ele>164.5</ele>
        <time>2020-03-01T11:52:00.000Z</time>
      </trkpt>
      <trkpt lat="43.64323" lon="6.79049">
        <ele>165.5</ele>
        <time>2020-03-01T11:52:23.000Z</time>
      </trkpt>
      <trkpt lat="43.64318" lon="6.7906">
        <ele>158.7</ele>
        <time>2020-03-01T11:52:34.000Z</time>
      </trkpt>
      <trkpt lat="43.64318" lon="6.79074">
        <ele>162.5</ele>
        <time>2020-03-01T11:52:59.000Z</time>
      </trkpt>
      <trkpt lat="43.64311" lon="6.79088">
        <ele>161.8</ele>
        <time>2020-03-01T11:53:22.000Z</time>
      </trkpt>
      <trkpt lat="43.64302" lon="6.79089">
        <ele>162</ele>
        <time>2020-03-01T11:53:47.000Z</time>
      </trkpt>
      <trkpt lat="43.64296" lon="6.79077">
        <ele>158.4</ele>
        <time>2020-03-01T11:53:56.000Z</time>
      </trkpt>
      <trkpt lat="43.6429" lon="6.79067">
        <ele>157.9</ele>
        <time>2020-03-01T11:53:59.000Z</time>
      </trkpt>
      <trkpt lat="43.64282" lon="6.79059">
        <ele>156.9</ele>
        <time>2020-03-01T11:54:04.000Z</time>
      </trkpt>
      <trkpt lat="43.64272" lon="6.79062">
        <ele>156.7</ele>
        <time>2020-03-01T11:54:05.000Z</time>
      </trkpt>
      <trkpt lat="43.64262" lon="6.79062">
        <ele>156.1</ele>
        <time>2020-03-01T11:54:08.000Z</time>
      </trkpt>
      <trkpt lat="43.6427" lon="6.79072">
        <ele>154.6</ele>
        <time>2020-03-01T11:54:15.000Z</time>
      </trkpt>
      <trkpt lat="43.6428" lon="6.79071">
        <ele>153.8</ele>
        <time>2020-03-01T11:54:21.000Z</time>
      </trkpt>
      <trkpt lat="43.64288" lon="6.79065">
        <ele>153.3</ele>
        <time>2020-03-01T11:54:28.000Z</time>
      </trkpt>
      <trkpt lat="43.64302" lon="6.79077">
        <ele>153</ele>
        <time>2020-03-01T11:54:30.000Z</time>
      </trkpt>
      <trkpt lat="43.64329" lon="6.79077">
        <ele>152.8</ele>
        <time>2020-03-01T11:54:32.000Z</time>
      </trkpt>
      <trkpt lat="43.64345" lon="6.79076">
        <ele>152.7</ele>
        <time>2020-03-01T11:54:34.000Z</time>
      </trkpt>
      <trkpt lat="43.64355" lon="6.79081">
        <ele>152.6</ele>
        <time>2020-03-01T11:54:35.000Z</time>
      </trkpt>
      <trkpt lat="43.64365" lon="6.79082">
        <ele>152.5</ele>
        <time>2020-03-01T11:54:36.000Z</time>
      </trkpt>
      <trkpt lat="43.64377" lon="6.79085">
        <ele>152.3</ele>
        <time>2020-03-01T11:54:38.000Z</time>
      </trkpt>
      <trkpt lat="43.64364" lon="6.79074">
        <ele>152.2</ele>
        <time>2020-03-01T11:54:40.000Z</time>
      </trkpt>
      <trkpt lat="43.6437" lon="6.79083">
        <ele>151.9</ele>
        <time>2020-03-01T11:54:43.000Z</time>
      </trkpt>
      <trkpt lat="43.64344" lon="6.79094">
        <ele>151.5</ele>
        <time>2020-03-01T11:54:44.000Z</time>
      </trkpt>
      <trkpt lat="43.64335" lon="6.79087">
        <ele>151.3</ele>
        <time>2020-03-01T11:54:47.000Z</time>
      </trkpt>
      <trkpt lat="43.64324" lon="6.79083">
        <ele>151.3</ele>
        <time>2020-03-01T11:54:54.000Z</time>
      </trkpt>
      <trkpt lat="43.64312" lon="6.79081">
        <ele>156.2</ele>
        <time>2020-03-01T11:55:01.000Z</time>
      </trkpt>
      <trkpt lat="43.64319" lon="6.79091">
        <ele>156.2</ele>
        <time>2020-03-01T11:55:08.000Z</time>
      </trkpt>
      <trkpt lat="43.64327" lon="6.79085">
        <ele>162.8</ele>
        <time>2020-03-01T11:55:40.000Z</time>
      </trkpt>
      <trkpt lat="43.64333" lon="6.79075">
        <ele>162.5</ele>
        <time>2020-03-01T11:55:52.000Z</time>
      </trkpt>
      <trkpt lat="43.64337" lon="6.79062">
        <ele>160.5</ele>
        <time>2020-03-01T11:56:03.000Z</time>
      </trkpt>
      <trkpt lat="43.64333" lon="6.79048">
        <ele>161.6</ele>
        <time>2020-03-01T11:56:13.000Z</time>
      </trkpt>
      <trkpt lat="43.64328" lon="6.79037">
        <ele>164.2</ele>
        <time>2020-03-01T11:56:25.000Z</time>
      </trkpt>
      <trkpt lat="43.64322" lon="6.79028">
        <ele>164.1</ele>
        <time>2020-03-01T11:56:36.000Z</time>
      </trkpt>
      <trkpt lat="43.64325" lon="6.79014">
        <ele>163.4</ele>
        <time>2020-03-01T11:56:53.000Z</time>
      </trkpt>
      <trkpt lat="43.64331" lon="6.79005">
        <ele>161.4</ele>
        <time>2020-03-01T11:57:06.000Z</time>
      </trkpt>
      <trkpt lat="43.64336" lon="6.78994">
        <ele>158.8</ele>
        <time>2020-03-01T11:57:21.000Z</time>
      </trkpt>
      <trkpt lat="43.64337" lon="6.78981">
        <ele>155.5</ele>
        <time>2020-03-01T11:57:48.000Z</time>
      </trkpt>
      <trkpt lat="43.64336" lon="6.78968">
        <ele>154.8</ele>
        <time>2020-03-01T11:57:58.000Z</time>
      </trkpt>
      <trkpt lat="43.6438" lon="6.79016">
        <ele>213.1</ele>
        <time>2020-03-01T12:53:22.000Z</time>
      </trkpt>
      <trkpt lat="43.6434" lon="6.78992">
        <ele>165.2</ele>
        <time>2020-03-01T12:53:23.000Z</time>
      </trkpt>
      <trkpt lat="43.64333" lon="6.78979">
        <ele>153.8</ele>
        <time>2020-03-01T12:53:26.000Z</time>
      </trkpt>
      <trkpt lat="43.64345" lon="6.78978">
        <ele>148.1</ele>
        <time>2020-03-01T12:54:02.000Z</time>
      </trkpt>
      <trkpt lat="43.64339" lon="6.78966">
        <ele>148</ele>
        <time>2020-03-01T12:55:25.000Z</time>
      </trkpt>
      <trkpt lat="43.64331" lon="6.7897">
        <ele>148.6</ele>
        <time>2020-03-01T12:58:46.000Z</time>
      </trkpt>
      <trkpt lat="43.64322" lon="6.78973">
        <ele>149.1</ele>
        <time>2020-03-01T12:59:06.000Z</time>
      </trkpt>
      <trkpt lat="43.64312" lon="6.78973">
        <ele>147.6</ele>
        <time>2020-03-01T12:59:15.000Z</time>
      </trkpt>
      <trkpt lat="43.64315" lon="6.7896">
        <ele>150.8</ele>
        <time>2020-03-01T12:59:32.000Z</time>
      </trkpt>
      <trkpt lat="43.6432" lon="6.78949">
        <ele>152</ele>
        <time>2020-03-01T12:59:46.000Z</time>
      </trkpt>
      <trkpt lat="43.64327" lon="6.78941">
        <ele>153.4</ele>
        <time>2020-03-01T12:59:57.000Z</time>
      </trkpt>
      <trkpt lat="43.6433" lon="6.78929">
        <ele>152.8</ele>
        <time>2020-03-01T13:00:06.000Z</time>
      </trkpt>
      <trkpt lat="43.64341" lon="6.78926">
        <ele>153.2</ele>
        <time>2020-03-01T13:00:12.000Z</time>
      </trkpt>
      <trkpt lat="43.64352" lon="6.78925">
        <ele>149.4</ele>
        <time>2020-03-01T13:00:19.000Z</time>
      </trkpt>
      <trkpt lat="43.64359" lon="6.78932">
        <ele>138.7</ele>
        <time>2020-03-01T13:00:33.000Z</time>
      </trkpt>
      <trkpt lat="43.64369" lon="6.7893">
        <ele>139.2</ele>
        <time>2020-03-01T13:00:46.000Z</time>
      </trkpt>
      <trkpt lat="43.64377" lon="6.78924">
        <ele>142.9</ele>
        <time>2020-03-01T13:00:59.000Z</time>
      </trkpt>
      <trkpt lat="43.64388" lon="6.78922">
        <ele>147.1</ele>
        <time>2020-03-01T13:01:06.000Z</time>
      </trkpt>
      <trkpt lat="43.64397" lon="6.78919">
        <ele>151.9</ele>
        <time>2020-03-01T13:01:14.000Z</time>
      </trkpt>
      <trkpt lat="43.64406" lon="6.78915">
        <ele>157.7</ele>
        <time>2020-03-01T13:01:35.000Z</time>
      </trkpt>
      <trkpt lat="43.64414" lon="6.78908">
        <ele>156.9</ele>
        <time>2020-03-01T13:01:43.000Z</time>
      </trkpt>
      <trkpt lat="43.64423" lon="6.78901">
        <ele>147.5</ele>
        <time>2020-03-01T13:02:00.000Z</time>
      </trkpt>
      <trkpt lat="43.64431" lon="6.78894">
        <ele>151.8</ele>
        <time>2020-03-01T13:02:14.000Z</time>
      </trkpt>
      <trkpt lat="43.6444" lon="6.78892">
        <ele>153.6</ele>
        <time>2020-03-01T13:02:22.000Z</time>
      </trkpt>
      <trkpt lat="43.64444" lon="6.7888">
        <ele>159.9</ele>
        <time>2020-03-01T13:02:31.000Z</time>
      </trkpt>
      <trkpt lat="43.64449" lon="6.7887">
        <ele>161.8</ele>
        <time>2020-03-01T13:02:48.000Z</time>
      </trkpt>
      <trkpt lat="43.64458" lon="6.78867">
        <ele>162.3</ele>
        <time>2020-03-01T13:03:01.000Z</time>
      </trkpt>
      <trkpt lat="43.64465" lon="6.78859">
        <ele>159.7</ele>
        <time>2020-03-01T13:03:30.000Z</time>
      </trkpt>
      <trkpt lat="43.6447" lon="6.78847">
        <ele>157.9</ele>
        <time>2020-03-01T13:03:45.000Z</time>
      </trkpt>
      <trkpt lat="43.64477" lon="6.78838">
        <ele>156.2</ele>
        <time>2020-03-01T13:03:53.000Z</time>
      </trkpt>
      <trkpt lat="43.64484" lon="6.78829">
        <ele>155</ele>
        <time>2020-03-01T13:04:01.000Z</time>
      </trkpt>
      <trkpt lat="43.64491" lon="6.7882">
        <ele>153.4</ele>
        <time>2020-03-01T13:04:17.000Z</time>
      </trkpt>
      <trkpt lat="43.645" lon="6.78816">
        <ele>152.2</ele>
        <time>2020-03-01T13:04:23.000Z</time>
      </trkpt>
      <trkpt lat="43.64508" lon="6.78809">
        <ele>151.1</ele>
        <time>2020-03-01T13:04:30.000Z</time>
      </trkpt>
      <trkpt lat="43.64515" lon="6.78801">
        <ele>150.3</ele>
        <time>2020-03-01T13:04:39.000Z</time>
      </trkpt>
      <trkpt lat="43.64523" lon="6.78794">
        <ele>149.4</ele>
        <time>2020-03-01T13:04:51.000Z</time>
      </trkpt>
      <trkpt lat="43.64532" lon="6.78794">
        <ele>149</ele>
        <time>2020-03-01T13:05:00.000Z</time>
      </trkpt>
      <trkpt lat="43.64538" lon="6.78784">
        <ele>148.2</ele>
        <time>2020-03-01T13:05:10.000Z</time>
      </trkpt>
      <trkpt lat="43.64544" lon="6.78775">
        <ele>149.3</ele>
        <time>2020-03-01T13:05:23.000Z</time>
      </trkpt>
      <trkpt lat="43.64548" lon="6.78762">
        <ele>149.9</ele>
        <time>2020-03-01T13:05:36.000Z</time>
      </trkpt>
      <trkpt lat="43.64555" lon="6.78755">
        <ele>150.4</ele>
        <time>2020-03-01T13:05:52.000Z</time>
      </trkpt>
      <trkpt lat="43.64563" lon="6.78747">
        <ele>149.7</ele>
        <time>2020-03-01T13:05:59.000Z</time>
      </trkpt>
      <trkpt lat="43.64571" lon="6.7874">
        <ele>147.8</ele>
        <time>2020-03-01T13:06:09.000Z</time>
      </trkpt>
      <trkpt lat="43.6458" lon="6.78737">
        <ele>148.2</ele>
        <time>2020-03-01T13:06:21.000Z</time>
      </trkpt>
      <trkpt lat="43.64588" lon="6.78729">
        <ele>149.4</ele>
        <time>2020-03-01T13:06:29.000Z</time>
      </trkpt>
      <trkpt lat="43.64595" lon="6.7872">
        <ele>149.7</ele>
        <time>2020-03-01T13:06:40.000Z</time>
      </trkpt>
      <trkpt lat="43.64603" lon="6.78713">
        <ele>151.4</ele>
        <time>2020-03-01T13:06:49.000Z</time>
      </trkpt>
      <trkpt lat="43.64612" lon="6.7871">
        <ele>151.9</ele>
        <time>2020-03-01T13:07:00.000Z</time>
      </trkpt>
      <trkpt lat="43.64621" lon="6.78704">
        <ele>151.1</ele>
        <time>2020-03-01T13:07:10.000Z</time>
      </trkpt>
      <trkpt lat="43.64631" lon="6.78702">
        <ele>149.2</ele>
        <time>2020-03-01T13:07:24.000Z</time>
      </trkpt>
      <trkpt lat="43.6464" lon="6.78697">
        <ele>145.2</ele>
        <time>2020-03-01T13:07:33.000Z</time>
      </trkpt>
      <trkpt lat="43.64648" lon="6.7869">
        <ele>143.4</ele>
        <time>2020-03-01T13:07:43.000Z</time>
      </trkpt>
      <trkpt lat="43.64657" lon="6.78686">
        <ele>145.7</ele>
        <time>2020-03-01T13:07:51.000Z</time>
      </trkpt>
      <trkpt lat="43.64665" lon="6.78679">
        <ele>148.3</ele>
        <time>2020-03-01T13:08:02.000Z</time>
      </trkpt>
      <trkpt lat="43.64673" lon="6.7867">
        <ele>150.3</ele>
        <time>2020-03-01T13:08:10.000Z</time>
      </trkpt>
      <trkpt lat="43.64681" lon="6.78664">
        <ele>152.4</ele>
        <time>2020-03-01T13:08:17.000Z</time>
      </trkpt>
      <trkpt lat="43.64689" lon="6.78656">
        <ele>153.9</ele>
        <time>2020-03-01T13:08:26.000Z</time>
      </trkpt>
      <trkpt lat="43.64695" lon="6.78646">
        <ele>154.6</ele>
        <time>2020-03-01T13:08:39.000Z</time>
      </trkpt>
      <trkpt lat="43.64698" lon="6.78634">
        <ele>155.6</ele>
        <time>2020-03-01T13:08:53.000Z</time>
      </trkpt>
      <trkpt lat="43.64706" lon="6.78625">
        <ele>156.3</ele>
        <time>2020-03-01T13:09:02.000Z</time>
      </trkpt>
      <trkpt lat="43.64712" lon="6.78616">
        <ele>157.3</ele>
        <time>2020-03-01T13:09:12.000Z</time>
      </trkpt>
      <trkpt lat="43.6472" lon="6.78607">
        <ele>158.4</ele>
        <time>2020-03-01T13:09:20.000Z</time>
      </trkpt>
      <trkpt lat="43.64727" lon="6.78598">
        <ele>159.2</ele>
        <time>2020-03-01T13:09:31.000Z</time>
      </trkpt>
      <trkpt lat="43.64734" lon="6.78591">
        <ele>159.9</ele>
        <time>2020-03-01T13:09:39.000Z</time>
      </trkpt>
      <trkpt lat="43.64739" lon="6.78579">
        <ele>159.9</ele>
        <time>2020-03-01T13:09:51.000Z</time>
      </trkpt>
      <trkpt lat="43.64742" lon="6.78567">
        <ele>160.1</ele>
        <time>2020-03-01T13:10:02.000Z</time>
      </trkpt>
      <trkpt lat="43.64747" lon="6.78557">
        <ele>160.5</ele>
        <time>2020-03-01T13:10:13.000Z</time>
      </trkpt>
      <trkpt lat="43.64753" lon="6.78547">
        <ele>159.6</ele>
        <time>2020-03-01T13:10:29.000Z</time>
      </trkpt>
      <trkpt lat="43.64756" lon="6.78534">
        <ele>158.2</ele>
        <time>2020-03-01T13:10:39.000Z</time>
      </trkpt>
      <trkpt lat="43.64761" lon="6.78524">
        <ele>156.9</ele>
        <time>2020-03-01T13:10:49.000Z</time>
      </trkpt>
      <trkpt lat="43.64765" lon="6.78511">
        <ele>154.7</ele>
        <time>2020-03-01T13:11:03.000Z</time>
      </trkpt>
      <trkpt lat="43.64764" lon="6.78497">
        <ele>154.3</ele>
        <time>2020-03-01T13:11:11.000Z</time>
      </trkpt>
      <trkpt lat="43.64768" lon="6.78484">
        <ele>154.2</ele>
        <time>2020-03-01T13:11:19.000Z</time>
      </trkpt>
      <trkpt lat="43.64775" lon="6.78476">
        <ele>151.6</ele>
        <time>2020-03-01T13:11:30.000Z</time>
      </trkpt>
      <trkpt lat="43.64785" lon="6.7847">
        <ele>152.2</ele>
        <time>2020-03-01T13:11:39.000Z</time>
      </trkpt>
      <trkpt lat="43.64793" lon="6.78462">
        <ele>152</ele>
        <time>2020-03-01T13:11:47.000Z</time>
      </trkpt>
      <trkpt lat="43.64801" lon="6.78455">
        <ele>147.9</ele>
        <time>2020-03-01T13:12:03.000Z</time>
      </trkpt>
      <trkpt lat="43.6481" lon="6.78453">
        <ele>151</ele>
        <time>2020-03-01T13:12:11.000Z</time>
      </trkpt>
      <trkpt lat="43.64821" lon="6.78447">
        <ele>155.1</ele>
        <time>2020-03-01T13:12:21.000Z</time>
      </trkpt>
      <trkpt lat="43.64831" lon="6.78444">
        <ele>154.3</ele>
        <time>2020-03-01T13:12:31.000Z</time>
      </trkpt>
      <trkpt lat="43.6484" lon="6.78443">
        <ele>153.2</ele>
        <time>2020-03-01T13:12:36.000Z</time>
      </trkpt>
      <trkpt lat="43.64848" lon="6.78436">
        <ele>151.3</ele>
        <time>2020-03-01T13:12:43.000Z</time>
      </trkpt>
      <trkpt lat="43.64858" lon="6.78434">
        <ele>148.2</ele>
        <time>2020-03-01T13:12:50.000Z</time>
      </trkpt>
      <trkpt lat="43.64865" lon="6.78443">
        <ele>146.3</ele>
        <time>2020-03-01T13:13:01.000Z</time>
      </trkpt>
      <trkpt lat="43.64875" lon="6.78445">
        <ele>148.1</ele>
        <time>2020-03-01T13:13:13.000Z</time>
      </trkpt>
      <trkpt lat="43.64885" lon="6.78447">
        <ele>152.6</ele>
        <time>2020-03-01T13:13:24.000Z</time>
      </trkpt>
      <trkpt lat="43.64895" lon="6.78446">
        <ele>154.5</ele>
        <time>2020-03-01T13:13:32.000Z</time>
      </trkpt>
      <trkpt lat="43.64904" lon="6.7844">
        <ele>153.4</ele>
        <time>2020-03-01T13:13:42.000Z</time>
      </trkpt>
      <trkpt lat="43.64913" lon="6.78447">
        <ele>153.2</ele>
        <time>2020-03-01T13:13:48.000Z</time>
      </trkpt>
      <trkpt lat="43.64922" lon="6.78446">
        <ele>150.6</ele>
        <time>2020-03-01T13:13:55.000Z</time>
      </trkpt>
      <trkpt lat="43.6493" lon="6.78455">
        <ele>149.1</ele>
        <time>2020-03-01T13:14:09.000Z</time>
      </trkpt>
      <trkpt lat="43.64942" lon="6.78455">
        <ele>148</ele>
        <time>2020-03-01T13:14:36.000Z</time>
      </trkpt>
      <trkpt lat="43.64952" lon="6.7846">
        <ele>149.1</ele>
        <time>2020-03-01T13:14:42.000Z</time>
      </trkpt>
      <trkpt lat="43.64959" lon="6.78469">
        <ele>149.8</ele>
        <time>2020-03-01T13:14:50.000Z</time>
      </trkpt>
      <trkpt lat="43.64966" lon="6.78479">
        <ele>149.2</ele>
        <time>2020-03-01T13:14:56.000Z</time>
      </trkpt>
      <trkpt lat="43.64972" lon="6.78488">
        <ele>148.6</ele>
        <time>2020-03-01T13:15:02.000Z</time>
      </trkpt>
      <trkpt lat="43.6498" lon="6.78497">
        <ele>148.7</ele>
        <time>2020-03-01T13:15:08.000Z</time>
      </trkpt>
      <trkpt lat="43.64985" lon="6.78508">
        <ele>147.1</ele>
        <time>2020-03-01T13:15:18.000Z</time>
      </trkpt>
      <trkpt lat="43.64992" lon="6.78518">
        <ele>146.3</ele>
        <time>2020-03-01T13:15:27.000Z</time>
      </trkpt>
      <trkpt lat="43.65" lon="6.78525">
        <ele>145.9</ele>
        <time>2020-03-01T13:15:31.000Z</time>
      </trkpt>
      <trkpt lat="43.65005" lon="6.78541">
        <ele>152.2</ele>
        <time>2020-03-01T13:16:09.000Z</time>
      </trkpt>
      <trkpt lat="43.65002" lon="6.78553">
        <ele>153</ele>
        <time>2020-03-01T13:16:18.000Z</time>
      </trkpt>
      <trkpt lat="43.65001" lon="6.78566">
        <ele>152.4</ele>
        <time>2020-03-01T13:16:30.000Z</time>
      </trkpt>
      <trkpt lat="43.65007" lon="6.78556">
        <ele>172.5</ele>
        <time>2020-03-01T13:18:59.000Z</time>
      </trkpt>
      <trkpt lat="43.64998" lon="6.78553">
        <ele>169.8</ele>
        <time>2020-03-01T13:19:46.000Z</time>
      </trkpt>
      <trkpt lat="43.65006" lon="6.78546">
        <ele>167.9</ele>
        <time>2020-03-01T13:20:28.000Z</time>
      </trkpt>
      <trkpt lat="43.65013" lon="6.78538">
        <ele>169.2</ele>
        <time>2020-03-01T13:20:38.000Z</time>
      </trkpt>
      <trkpt lat="43.65023" lon="6.78535">
        <ele>168.6</ele>
        <time>2020-03-01T13:20:45.000Z</time>
      </trkpt>
      <trkpt lat="43.65031" lon="6.78531">
        <ele>168.1</ele>
        <time>2020-03-01T13:20:52.000Z</time>
      </trkpt>
      <trkpt lat="43.65041" lon="6.78533">
        <ele>167.1</ele>
        <time>2020-03-01T13:21:02.000Z</time>
      </trkpt>
      <trkpt lat="43.6505" lon="6.78531">
        <ele>166.3</ele>
        <time>2020-03-01T13:21:12.000Z</time>
      </trkpt>
      <trkpt lat="43.65059" lon="6.78531">
        <ele>165.8</ele>
        <time>2020-03-01T13:21:24.000Z</time>
      </trkpt>
      <trkpt lat="43.65068" lon="6.78533">
        <ele>165.5</ele>
        <time>2020-03-01T13:21:36.000Z</time>
      </trkpt>
      <trkpt lat="43.65078" lon="6.78533">
        <ele>165.5</ele>
        <time>2020-03-01T13:21:44.000Z</time>
      </trkpt>
      <trkpt lat="43.65086" lon="6.78528">
        <ele>166.1</ele>
        <time>2020-03-01T13:21:50.000Z</time>
      </trkpt>
      <trkpt lat="43.65096" lon="6.78528">
        <ele>166.3</ele>
        <time>2020-03-01T13:21:56.000Z</time>
      </trkpt>
      <trkpt lat="43.65106" lon="6.78524">
        <ele>166.7</ele>
        <time>2020-03-01T13:22:05.000Z</time>
      </trkpt>
      <trkpt lat="43.65112" lon="6.78513">
        <ele>166.5</ele>
        <time>2020-03-01T13:22:14.000Z</time>
      </trkpt>
      <trkpt lat="43.65123" lon="6.78512">
        <ele>164.7</ele>
        <time>2020-03-01T13:22:19.000Z</time>
      </trkpt>
      <trkpt lat="43.65129" lon="6.78502">
        <ele>164.3</ele>
        <time>2020-03-01T13:22:25.000Z</time>
      </trkpt>
      <trkpt lat="43.65135" lon="6.78492">
        <ele>164.3</ele>
        <time>2020-03-01T13:22:31.000Z</time>
      </trkpt>
      <trkpt lat="43.65134" lon="6.78479">
        <ele>163.9</ele>
        <time>2020-03-01T13:22:39.000Z</time>
      </trkpt>
      <trkpt lat="43.65141" lon="6.78468">
        <ele>163.9</ele>
        <time>2020-03-01T13:22:50.000Z</time>
      </trkpt>
      <trkpt lat="43.6515" lon="6.78466">
        <ele>162.8</ele>
        <time>2020-03-01T13:22:55.000Z</time>
      </trkpt>
      <trkpt lat="43.6516" lon="6.78467">
        <ele>162.3</ele>
        <time>2020-03-01T13:22:58.000Z</time>
      </trkpt>
      <trkpt lat="43.6517" lon="6.78467">
        <ele>162</ele>
        <time>2020-03-01T13:23:02.000Z</time>
      </trkpt>
      <trkpt lat="43.65179" lon="6.78467">
        <ele>162.2</ele>
        <time>2020-03-01T13:23:06.000Z</time>
      </trkpt>
      <trkpt lat="43.65189" lon="6.78462">
        <ele>163.1</ele>
        <time>2020-03-01T13:23:18.000Z</time>
      </trkpt>
      <trkpt lat="43.65196" lon="6.78455">
        <ele>163.3</ele>
        <time>2020-03-01T13:23:27.000Z</time>
      </trkpt>
      <trkpt lat="43.652" lon="6.78443">
        <ele>164.7</ele>
        <time>2020-03-01T13:23:38.000Z</time>
      </trkpt>
      <trkpt lat="43.65199" lon="6.78429">
        <ele>164.4</ele>
        <time>2020-03-01T13:23:49.000Z</time>
      </trkpt>
      <trkpt lat="43.65208" lon="6.7843">
        <ele>163.8</ele>
        <time>2020-03-01T13:23:53.000Z</time>
      </trkpt>
      <trkpt lat="43.65218" lon="6.78425">
        <ele>163.3</ele>
        <time>2020-03-01T13:24:01.000Z</time>
      </trkpt>
      <trkpt lat="43.65225" lon="6.78418">
        <ele>168.3</ele>
        <time>2020-03-01T13:24:12.000Z</time>
      </trkpt>
      <trkpt lat="43.65234" lon="6.78414">
        <ele>170.6</ele>
        <time>2020-03-01T13:24:21.000Z</time>
      </trkpt>
      <trkpt lat="43.65243" lon="6.78412">
        <ele>173</ele>
        <time>2020-03-01T13:24:28.000Z</time>
      </trkpt>
      <trkpt lat="43.65252" lon="6.7841">
        <ele>174.1</ele>
        <time>2020-03-01T13:24:38.000Z</time>
      </trkpt>
      <trkpt lat="43.65253" lon="6.78395">
        <ele>174.5</ele>
        <time>2020-03-01T13:25:09.000Z</time>
      </trkpt>
      <trkpt lat="43.65258" lon="6.78384">
        <ele>174.1</ele>
        <time>2020-03-01T13:25:19.000Z</time>
      </trkpt>
      <trkpt lat="43.65256" lon="6.78371">
        <ele>174.7</ele>
        <time>2020-03-01T13:25:34.000Z</time>
      </trkpt>
      <trkpt lat="43.65262" lon="6.7836">
        <ele>171.7</ele>
        <time>2020-03-01T13:26:05.000Z</time>
      </trkpt>
      <trkpt lat="43.65267" lon="6.7835">
        <ele>173.6</ele>
        <time>2020-03-01T13:26:27.000Z</time>
      </trkpt>
      <trkpt lat="43.65275" lon="6.78343">
        <ele>177.1</ele>
        <time>2020-03-01T13:26:39.000Z</time>
      </trkpt>
      <trkpt lat="43.6528" lon="6.78332">
        <ele>178</ele>
        <time>2020-03-01T13:28:40.000Z</time>
      </trkpt>
      <trkpt lat="43.65287" lon="6.78324">
        <ele>179.3</ele>
        <time>2020-03-01T13:28:48.000Z</time>
      </trkpt>
      <trkpt lat="43.6529" lon="6.78311">
        <ele>180.9</ele>
        <time>2020-03-01T13:28:59.000Z</time>
      </trkpt>
      <trkpt lat="43.6529" lon="6.78299">
        <ele>183</ele>
        <time>2020-03-01T13:29:06.000Z</time>
      </trkpt>
      <trkpt lat="43.65295" lon="6.78288">
        <ele>183.3</ele>
        <time>2020-03-01T13:29:18.000Z</time>
      </trkpt>
      <trkpt lat="43.65303" lon="6.78279">
        <ele>183.6</ele>
        <time>2020-03-01T13:29:25.000Z</time>
      </trkpt>
      <trkpt lat="43.6531" lon="6.78269">
        <ele>184.8</ele>
        <time>2020-03-01T13:29:34.000Z</time>
      </trkpt>
      <trkpt lat="43.65317" lon="6.78261">
        <ele>186.6</ele>
        <time>2020-03-01T13:29:42.000Z</time>
      </trkpt>
      <trkpt lat="43.65326" lon="6.78257">
        <ele>187.8</ele>
        <time>2020-03-01T13:29:47.000Z</time>
      </trkpt>
      <trkpt lat="43.65335" lon="6.7825">
        <ele>189.5</ele>
        <time>2020-03-01T13:30:02.000Z</time>
      </trkpt>
      <trkpt lat="43.65343" lon="6.78244">
        <ele>192.9</ele>
        <time>2020-03-01T13:30:16.000Z</time>
      </trkpt>
      <trkpt lat="43.65351" lon="6.78235">
        <ele>193.4</ele>
        <time>2020-03-01T13:30:30.000Z</time>
      </trkpt>
      <trkpt lat="43.65362" lon="6.78234">
        <ele>186.2</ele>
        <time>2020-03-01T13:30:43.000Z</time>
      </trkpt>
      <trkpt lat="43.65372" lon="6.78231">
        <ele>189.3</ele>
        <time>2020-03-01T13:30:47.000Z</time>
      </trkpt>
      <trkpt lat="43.65381" lon="6.78228">
        <ele>193.1</ele>
        <time>2020-03-01T13:30:54.000Z</time>
      </trkpt>
      <trkpt lat="43.65391" lon="6.78229">
        <ele>198.1</ele>
        <time>2020-03-01T13:31:02.000Z</time>
      </trkpt>
      <trkpt lat="43.65382" lon="6.78228">
        <ele>188.8</ele>
        <time>2020-03-01T13:31:13.000Z</time>
      </trkpt>
      <trkpt lat="43.6539" lon="6.78234">
        <ele>186.2</ele>
        <time>2020-03-01T13:31:21.000Z</time>
      </trkpt>
      <trkpt lat="43.65382" lon="6.7823">
        <ele>181.4</ele>
        <time>2020-03-01T13:31:31.000Z</time>
      </trkpt>
      <trkpt lat="43.65384" lon="6.78218">
        <ele>183.5</ele>
        <time>2020-03-01T13:31:51.000Z</time>
      </trkpt>
      <trkpt lat="43.65389" lon="6.78206">
        <ele>183.2</ele>
        <time>2020-03-01T13:32:11.000Z</time>
      </trkpt>
      <trkpt lat="43.65396" lon="6.78197">
        <ele>183.1</ele>
        <time>2020-03-01T13:32:17.000Z</time>
      </trkpt>
      <trkpt lat="43.654" lon="6.78185">
        <ele>183.3</ele>
        <time>2020-03-01T13:32:27.000Z</time>
      </trkpt>
      <trkpt lat="43.65402" lon="6.78172">
        <ele>181.1</ele>
        <time>2020-03-01T13:32:39.000Z</time>
      </trkpt>
      <trkpt lat="43.65409" lon="6.78164">
        <ele>179.8</ele>
        <time>2020-03-01T13:32:45.000Z</time>
      </trkpt>
      <trkpt lat="43.65418" lon="6.78156">
        <ele>178.4</ele>
        <time>2020-03-01T13:32:54.000Z</time>
      </trkpt>
      <trkpt lat="43.6542" lon="6.78143">
        <ele>176.8</ele>
        <time>2020-03-01T13:33:03.000Z</time>
      </trkpt>
      <trkpt lat="43.65417" lon="6.78131">
        <ele>172.2</ele>
        <time>2020-03-01T13:33:10.000Z</time>
      </trkpt>
      <trkpt lat="43.65423" lon="6.78122">
        <ele>171.7</ele>
        <time>2020-03-01T13:33:17.000Z</time>
      </trkpt>
      <trkpt lat="43.65426" lon="6.7811">
        <ele>168.6</ele>
        <time>2020-03-01T13:33:28.000Z</time>
      </trkpt>
      <trkpt lat="43.65429" lon="6.78096">
        <ele>169.2</ele>
        <time>2020-03-01T13:33:35.000Z</time>
      </trkpt>
      <trkpt lat="43.65437" lon="6.78086">
        <ele>170.5</ele>
        <time>2020-03-01T13:33:44.000Z</time>
      </trkpt>
      <trkpt lat="43.65444" lon="6.78076">
        <ele>172.6</ele>
        <time>2020-03-01T13:33:52.000Z</time>
      </trkpt>
      <trkpt lat="43.6545" lon="6.78066">
        <ele>177.5</ele>
        <time>2020-03-01T13:33:57.000Z</time>
      </trkpt>
      <trkpt lat="43.65457" lon="6.78058">
        <ele>179.7</ele>
        <time>2020-03-01T13:34:01.000Z</time>
      </trkpt>
      <trkpt lat="43.65466" lon="6.78048">
        <ele>181.2</ele>
        <time>2020-03-01T13:34:06.000Z</time>
      </trkpt>
      <trkpt lat="43.65474" lon="6.78039">
        <ele>179.3</ele>
        <time>2020-03-01T13:34:32.000Z</time>
      </trkpt>
      <trkpt lat="43.65479" lon="6.78028">
        <ele>181</ele>
        <time>2020-03-01T13:34:47.000Z</time>
      </trkpt>
      <trkpt lat="43.65474" lon="6.78015">
        <ele>182.9</ele>
        <time>2020-03-01T13:34:54.000Z</time>
      </trkpt>
      <trkpt lat="43.65477" lon="6.78003">
        <ele>185.3</ele>
        <time>2020-03-01T13:35:03.000Z</time>
      </trkpt>
      <trkpt lat="43.6548" lon="6.7799">
        <ele>188.2</ele>
        <time>2020-03-01T13:35:12.000Z</time>
      </trkpt>
      <trkpt lat="43.65488" lon="6.77982">
        <ele>189.4</ele>
        <time>2020-03-01T13:35:19.000Z</time>
      </trkpt>
      <trkpt lat="43.65488" lon="6.77969">
        <ele>191.1</ele>
        <time>2020-03-01T13:35:32.000Z</time>
      </trkpt>
      <trkpt lat="43.65492" lon="6.77956">
        <ele>191.5</ele>
        <time>2020-03-01T13:35:40.000Z</time>
      </trkpt>
      <trkpt lat="43.65494" lon="6.77943">
        <ele>190.7</ele>
        <time>2020-03-01T13:35:47.000Z</time>
      </trkpt>
      <trkpt lat="43.65496" lon="6.77929">
        <ele>191</ele>
        <time>2020-03-01T13:35:59.000Z</time>
      </trkpt>
      <trkpt lat="43.65497" lon="6.77916">
        <ele>190.6</ele>
        <time>2020-03-01T13:36:08.000Z</time>
      </trkpt>
      <trkpt lat="43.65504" lon="6.77909">
        <ele>188.4</ele>
        <time>2020-03-01T13:36:20.000Z</time>
      </trkpt>
      <trkpt lat="43.65503" lon="6.77896">
        <ele>186.1</ele>
        <time>2020-03-01T13:36:31.000Z</time>
      </trkpt>
      <trkpt lat="43.65503" lon="6.77884">
        <ele>189.9</ele>
        <time>2020-03-01T13:36:44.000Z</time>
      </trkpt>
      <trkpt lat="43.65498" lon="6.77873">
        <ele>188.4</ele>
        <time>2020-03-01T13:36:55.000Z</time>
      </trkpt>
      <trkpt lat="43.65505" lon="6.77864">
        <ele>186.1</ele>
        <time>2020-03-01T13:37:06.000Z</time>
      </trkpt>
      <trkpt lat="43.65507" lon="6.77852">
        <ele>185.9</ele>
        <time>2020-03-01T13:37:16.000Z</time>
      </trkpt>
      <trkpt lat="43.65506" lon="6.7784">
        <ele>176.6</ele>
        <time>2020-03-01T13:37:28.000Z</time>
      </trkpt>
      <trkpt lat="43.65509" lon="6.77827">
        <ele>174.3</ele>
        <time>2020-03-01T13:37:38.000Z</time>
      </trkpt>
      <trkpt lat="43.6552" lon="6.77823">
        <ele>175.6</ele>
        <time>2020-03-01T13:37:43.000Z</time>
      </trkpt>
      <trkpt lat="43.65524" lon="6.77809">
        <ele>175.2</ele>
        <time>2020-03-01T13:37:50.000Z</time>
      </trkpt>
      <trkpt lat="43.65524" lon="6.77796">
        <ele>176</ele>
        <time>2020-03-01T13:37:58.000Z</time>
      </trkpt>
      <trkpt lat="43.65532" lon="6.77787">
        <ele>173.2</ele>
        <time>2020-03-01T13:38:17.000Z</time>
      </trkpt>
      <trkpt lat="43.65542" lon="6.77784">
        <ele>172.1</ele>
        <time>2020-03-01T13:38:25.000Z</time>
      </trkpt>
      <trkpt lat="43.65549" lon="6.77773">
        <ele>168.2</ele>
        <time>2020-03-01T13:38:33.000Z</time>
      </trkpt>
      <trkpt lat="43.65554" lon="6.77763">
        <ele>166.8</ele>
        <time>2020-03-01T13:38:41.000Z</time>
      </trkpt>
      <trkpt lat="43.65562" lon="6.77756">
        <ele>166.5</ele>
        <time>2020-03-01T13:38:47.000Z</time>
      </trkpt>
      <trkpt lat="43.65568" lon="6.77747">
        <ele>170.2</ele>
        <time>2020-03-01T13:39:06.000Z</time>
      </trkpt>
      <trkpt lat="43.65578" lon="6.77748">
        <ele>174.6</ele>
        <time>2020-03-01T13:39:16.000Z</time>
      </trkpt>
      <trkpt lat="43.65587" lon="6.77748">
        <ele>176.2</ele>
        <time>2020-03-01T13:39:24.000Z</time>
      </trkpt>
      <trkpt lat="43.65597" lon="6.77753">
        <ele>176.2</ele>
        <time>2020-03-01T13:39:31.000Z</time>
      </trkpt>
      <trkpt lat="43.65603" lon="6.77743">
        <ele>174.7</ele>
        <time>2020-03-01T13:39:40.000Z</time>
      </trkpt>
      <trkpt lat="43.65611" lon="6.77734">
        <ele>179.9</ele>
        <time>2020-03-01T13:39:49.000Z</time>
      </trkpt>
      <trkpt lat="43.65619" lon="6.7773">
        <ele>183.4</ele>
        <time>2020-03-01T13:39:57.000Z</time>
      </trkpt>
      <trkpt lat="43.65628" lon="6.77726">
        <ele>183.9</ele>
        <time>2020-03-01T13:40:04.000Z</time>
      </trkpt>
      <trkpt lat="43.65637" lon="6.77722">
        <ele>188</ele>
        <time>2020-03-01T13:40:24.000Z</time>
      </trkpt>
      <trkpt lat="43.65647" lon="6.77719">
        <ele>188.8</ele>
        <time>2020-03-01T13:40:34.000Z</time>
      </trkpt>
      <trkpt lat="43.65656" lon="6.77719">
        <ele>189.8</ele>
        <time>2020-03-01T13:40:42.000Z</time>
      </trkpt>
      <trkpt lat="43.65666" lon="6.77723">
        <ele>191.8</ele>
        <time>2020-03-01T13:40:47.000Z</time>
      </trkpt>
      <trkpt lat="43.65677" lon="6.77717">
        <ele>185.2</ele>
        <time>2020-03-01T13:41:03.000Z</time>
      </trkpt>
      <trkpt lat="43.65686" lon="6.7772">
        <ele>187.2</ele>
        <time>2020-03-01T13:41:12.000Z</time>
      </trkpt>
      <trkpt lat="43.65693" lon="6.7771">
        <ele>186.5</ele>
        <time>2020-03-01T13:41:32.000Z</time>
      </trkpt>
      <trkpt lat="43.65705" lon="6.77714">
        <ele>185.4</ele>
        <time>2020-03-01T13:41:46.000Z</time>
      </trkpt>
      <trkpt lat="43.65718" lon="6.77728">
        <ele>185.4</ele>
        <time>2020-03-01T13:42:03.000Z</time>
      </trkpt>
      <trkpt lat="43.65728" lon="6.77715">
        <ele>180.4</ele>
        <time>2020-03-01T13:43:07.000Z</time>
      </trkpt>
      <trkpt lat="43.65736" lon="6.77721">
        <ele>179.8</ele>
        <time>2020-03-01T13:43:14.000Z</time>
      </trkpt>
      <trkpt lat="43.65744" lon="6.77729">
        <ele>178.3</ele>
        <time>2020-03-01T13:43:23.000Z</time>
      </trkpt>
      <trkpt lat="43.65753" lon="6.77735">
        <ele>178.4</ele>
        <time>2020-03-01T13:43:35.000Z</time>
      </trkpt>
      <trkpt lat="43.65762" lon="6.77731">
        <ele>177.3</ele>
        <time>2020-03-01T13:43:45.000Z</time>
      </trkpt>
      <trkpt lat="43.65772" lon="6.77732">
        <ele>176.8</ele>
        <time>2020-03-01T13:43:51.000Z</time>
      </trkpt>
      <trkpt lat="43.65776" lon="6.77721">
        <ele>175.3</ele>
        <time>2020-03-01T13:44:07.000Z</time>
      </trkpt>
      <trkpt lat="43.65786" lon="6.77717">
        <ele>175.9</ele>
        <time>2020-03-01T13:44:22.000Z</time>
      </trkpt>
      <trkpt lat="43.65796" lon="6.77718">
        <ele>177</ele>
        <time>2020-03-01T13:44:27.000Z</time>
      </trkpt>
      <trkpt lat="43.65806" lon="6.77718">
        <ele>178.4</ele>
        <time>2020-03-01T13:44:33.000Z</time>
      </trkpt>
      <trkpt lat="43.65815" lon="6.7772">
        <ele>179.3</ele>
        <time>2020-03-01T13:44:41.000Z</time>
      </trkpt>
      <trkpt lat="43.65824" lon="6.77714">
        <ele>178.3</ele>
        <time>2020-03-01T13:44:48.000Z</time>
      </trkpt>
      <trkpt lat="43.65831" lon="6.77705">
        <ele>176.5</ele>
        <time>2020-03-01T13:44:56.000Z</time>
      </trkpt>
      <trkpt lat="43.65841" lon="6.77698">
        <ele>175.4</ele>
        <time>2020-03-01T13:45:04.000Z</time>
      </trkpt>
      <trkpt lat="43.65849" lon="6.77691">
        <ele>172.5</ele>
        <time>2020-03-01T13:45:14.000Z</time>
      </trkpt>
      <trkpt lat="43.65859" lon="6.77685">
        <ele>172.1</ele>
        <time>2020-03-01T13:45:24.000Z</time>
      </trkpt>
      <trkpt lat="43.65869" lon="6.77682">
        <ele>171.4</ele>
        <time>2020-03-01T13:45:34.000Z</time>
      </trkpt>
      <trkpt lat="43.65878" lon="6.77683">
        <ele>171.6</ele>
        <time>2020-03-01T13:45:40.000Z</time>
      </trkpt>
      <trkpt lat="43.65887" lon="6.77683">
        <ele>172.3</ele>
        <time>2020-03-01T13:45:46.000Z</time>
      </trkpt>
      <trkpt lat="43.65896" lon="6.77679">
        <ele>173.8</ele>
        <time>2020-03-01T13:45:54.000Z</time>
      </trkpt>
      <trkpt lat="43.65907" lon="6.77674">
        <ele>173.8</ele>
        <time>2020-03-01T13:46:01.000Z</time>
      </trkpt>
      <trkpt lat="43.65914" lon="6.77666">
        <ele>175.1</ele>
        <time>2020-03-01T13:46:09.000Z</time>
      </trkpt>
      <trkpt lat="43.65923" lon="6.77665">
        <ele>178</ele>
        <time>2020-03-01T13:46:21.000Z</time>
      </trkpt>
      <trkpt lat="43.65933" lon="6.77664">
        <ele>178</ele>
        <time>2020-03-01T13:46:26.000Z</time>
      </trkpt>
      <trkpt lat="43.65943" lon="6.77661">
        <ele>179</ele>
        <time>2020-03-01T13:46:35.000Z</time>
      </trkpt>
      <trkpt lat="43.65952" lon="6.77656">
        <ele>178.9</ele>
        <time>2020-03-01T13:46:41.000Z</time>
      </trkpt>
      <trkpt lat="43.65961" lon="6.77651">
        <ele>178.3</ele>
        <time>2020-03-01T13:46:46.000Z</time>
      </trkpt>
      <trkpt lat="43.65971" lon="6.77647">
        <ele>178.5</ele>
        <time>2020-03-01T13:46:55.000Z</time>
      </trkpt>
      <trkpt lat="43.65984" lon="6.77646">
        <ele>182.1</ele>
        <time>2020-03-01T13:47:17.000Z</time>
      </trkpt>
      <trkpt lat="43.6599" lon="6.77656">
        <ele>182.2</ele>
        <time>2020-03-01T13:47:31.000Z</time>
      </trkpt>
      <trkpt lat="43.65982" lon="6.77648">
        <ele>183</ele>
        <time>2020-03-01T13:47:49.000Z</time>
      </trkpt>
      <trkpt lat="43.65986" lon="6.77637">
        <ele>181.2</ele>
        <time>2020-03-01T13:49:04.000Z</time>
      </trkpt>
      <trkpt lat="43.65995" lon="6.77645">
        <ele>178.5</ele>
        <time>2020-03-01T13:49:17.000Z</time>
      </trkpt>
      <trkpt lat="43.65986" lon="6.77647">
        <ele>168.8</ele>
        <time>2020-03-01T13:50:08.000Z</time>
      </trkpt>
      <trkpt lat="43.65995" lon="6.77653">
        <ele>169.5</ele>
        <time>2020-03-01T13:50:29.000Z</time>
      </trkpt>
      <trkpt lat="43.65992" lon="6.77665">
        <ele>173.2</ele>
        <time>2020-03-01T13:52:00.000Z</time>
      </trkpt>
      <trkpt lat="43.65988" lon="6.7765">
        <ele>201.2</ele>
        <time>2020-03-01T14:14:17.000Z</time>
      </trkpt>
      <trkpt lat="43.65982" lon="6.77641">
        <ele>194.7</ele>
        <time>2020-03-01T14:14:31.000Z</time>
      </trkpt>
      <trkpt lat="43.6599" lon="6.77634">
        <ele>192.8</ele>
        <time>2020-03-01T14:15:09.000Z</time>
      </trkpt>
      <trkpt lat="43.65993" lon="6.77622">
        <ele>191.6</ele>
        <time>2020-03-01T14:15:30.000Z</time>
      </trkpt>
      <trkpt lat="43.65997" lon="6.77611">
        <ele>191.9</ele>
        <time>2020-03-01T14:15:48.000Z</time>
      </trkpt>
      <trkpt lat="43.66003" lon="6.77601">
        <ele>190.7</ele>
        <time>2020-03-01T14:16:02.000Z</time>
      </trkpt>
      <trkpt lat="43.66008" lon="6.7759">
        <ele>191.6</ele>
        <time>2020-03-01T14:16:15.000Z</time>
      </trkpt>
      <trkpt lat="43.6601" lon="6.77577">
        <ele>192.7</ele>
        <time>2020-03-01T14:16:26.000Z</time>
      </trkpt>
      <trkpt lat="43.66014" lon="6.77566">
        <ele>196.8</ele>
        <time>2020-03-01T14:16:39.000Z</time>
      </trkpt>
      <trkpt lat="43.66021" lon="6.77556">
        <ele>198.5</ele>
        <time>2020-03-01T14:16:51.000Z</time>
      </trkpt>
      <trkpt lat="43.6602" lon="6.77541">
        <ele>197.3</ele>
        <time>2020-03-01T14:16:58.000Z</time>
      </trkpt>
      <trkpt lat="43.66022" lon="6.77529">
        <ele>197</ele>
        <time>2020-03-01T14:17:07.000Z</time>
      </trkpt>
      <trkpt lat="43.66019" lon="6.77517">
        <ele>196</ele>
        <time>2020-03-01T14:17:36.000Z</time>
      </trkpt>
      <trkpt lat="43.66014" lon="6.77506">
        <ele>196</ele>
        <time>2020-03-01T14:17:43.000Z</time>
      </trkpt>
      <trkpt lat="43.66012" lon="6.77493">
        <ele>196.2</ele>
        <time>2020-03-01T14:17:54.000Z</time>
      </trkpt>
      <trkpt lat="43.66006" lon="6.77483">
        <ele>193.4</ele>
        <time>2020-03-01T14:18:20.000Z</time>
      </trkpt>
      <trkpt lat="43.66005" lon="6.7747">
        <ele>191.6</ele>
        <time>2020-03-01T14:20:34.000Z</time>
      </trkpt>
      <trkpt lat="43.65994" lon="6.77462">
        <ele>190.4</ele>
        <time>2020-03-01T14:20:55.000Z</time>
      </trkpt>
      <trkpt lat="43.65988" lon="6.77453">
        <ele>190.1</ele>
        <time>2020-03-01T14:21:05.000Z</time>
      </trkpt>
      <trkpt lat="43.65997" lon="6.77461">
        <ele>193.1</ele>
        <time>2020-03-01T14:21:53.000Z</time>
      </trkpt>
      <trkpt lat="43.66009" lon="6.77475">
        <ele>196.7</ele>
        <time>2020-03-01T14:22:24.000Z</time>
      </trkpt>
      <trkpt lat="43.66007" lon="6.77493">
        <ele>197.8</ele>
        <time>2020-03-01T14:23:06.000Z</time>
      </trkpt>
      <trkpt lat="43.66013" lon="6.77502">
        <ele>197.8</ele>
        <time>2020-03-01T14:23:18.000Z</time>
      </trkpt>
      <trkpt lat="43.66022" lon="6.7751">
        <ele>199</ele>
        <time>2020-03-01T14:23:25.000Z</time>
      </trkpt>
      <trkpt lat="43.6603" lon="6.77518">
        <ele>198.5</ele>
        <time>2020-03-01T14:23:34.000Z</time>
      </trkpt>
      <trkpt lat="43.66033" lon="6.77532">
        <ele>197.5</ele>
        <time>2020-03-01T14:23:47.000Z</time>
      </trkpt>
      <trkpt lat="43.66032" lon="6.77547">
        <ele>197.4</ele>
        <time>2020-03-01T14:23:54.000Z</time>
      </trkpt>
      <trkpt lat="43.66029" lon="6.77559">
        <ele>195.2</ele>
        <time>2020-03-01T14:24:01.000Z</time>
      </trkpt>
      <trkpt lat="43.66026" lon="6.77571">
        <ele>190.6</ele>
        <time>2020-03-01T14:24:08.000Z</time>
      </trkpt>
      <trkpt lat="43.6602" lon="6.77582">
        <ele>189</ele>
        <time>2020-03-01T14:24:18.000Z</time>
      </trkpt>
      <trkpt lat="43.66014" lon="6.77593">
        <ele>189.2</ele>
        <time>2020-03-01T14:24:24.000Z</time>
      </trkpt>
      <trkpt lat="43.66006" lon="6.776">
        <ele>190.3</ele>
        <time>2020-03-01T14:24:31.000Z</time>
      </trkpt>
      <trkpt lat="43.65999" lon="6.77607">
        <ele>191.5</ele>
        <time>2020-03-01T14:24:41.000Z</time>
      </trkpt>
      <trkpt lat="43.65995" lon="6.77618">
        <ele>190.6</ele>
        <time>2020-03-01T14:24:50.000Z</time>
      </trkpt>
      <trkpt lat="43.65992" lon="6.77631">
        <ele>190.2</ele>
        <time>2020-03-01T14:24:59.000Z</time>
      </trkpt>
      <trkpt lat="43.65988" lon="6.77643">
        <ele>189.3</ele>
        <time>2020-03-01T14:25:06.000Z</time>
      </trkpt>
      <trkpt lat="43.65979" lon="6.7764">
        <ele>191.1</ele>
        <time>2020-03-01T14:25:20.000Z</time>
      </trkpt>
      <trkpt lat="43.6597" lon="6.77641">
        <ele>193.1</ele>
        <time>2020-03-01T14:25:34.000Z</time>
      </trkpt>
      <trkpt lat="43.65972" lon="6.77628">
        <ele>192.4</ele>
        <time>2020-03-01T14:26:31.000Z</time>
      </trkpt>
      <trkpt lat="43.65965" lon="6.7762">
        <ele>196.2</ele>
        <time>2020-03-01T14:27:07.000Z</time>
      </trkpt>
      <trkpt lat="43.65956" lon="6.77616">
        <ele>197.6</ele>
        <time>2020-03-01T14:27:20.000Z</time>
      </trkpt>
      <trkpt lat="43.65947" lon="6.77615">
        <ele>198.4</ele>
        <time>2020-03-01T14:27:28.000Z</time>
      </trkpt>
      <trkpt lat="43.65937" lon="6.77614">
        <ele>200.3</ele>
        <time>2020-03-01T14:28:15.000Z</time>
      </trkpt>
      <trkpt lat="43.65928" lon="6.77611">
        <ele>201.2</ele>
        <time>2020-03-01T14:28:26.000Z</time>
      </trkpt>
      <trkpt lat="43.65918" lon="6.77608">
        <ele>203.2</ele>
        <time>2020-03-01T14:28:39.000Z</time>
      </trkpt>
      <trkpt lat="43.6591" lon="6.77612">
        <ele>205</ele>
        <time>2020-03-01T14:28:48.000Z</time>
      </trkpt>
      <trkpt lat="43.65899" lon="6.77612">
        <ele>206.2</ele>
        <time>2020-03-01T14:28:58.000Z</time>
      </trkpt>
      <trkpt lat="43.65891" lon="6.77605">
        <ele>207.4</ele>
        <time>2020-03-01T14:29:08.000Z</time>
      </trkpt>
      <trkpt lat="43.65883" lon="6.77601">
        <ele>208.9</ele>
        <time>2020-03-01T14:29:20.000Z</time>
      </trkpt>
      <trkpt lat="43.65873" lon="6.776">
        <ele>209.5</ele>
        <time>2020-03-01T14:29:28.000Z</time>
      </trkpt>
      <trkpt lat="43.65863" lon="6.77601">
        <ele>208.1</ele>
        <time>2020-03-01T14:29:40.000Z</time>
      </trkpt>
      <trkpt lat="43.65854" lon="6.77602">
        <ele>205.9</ele>
        <time>2020-03-01T14:29:49.000Z</time>
      </trkpt>
      <trkpt lat="43.65844" lon="6.77607">
        <ele>204.1</ele>
        <time>2020-03-01T14:30:00.000Z</time>
      </trkpt>
      <trkpt lat="43.65835" lon="6.77608">
        <ele>202.3</ele>
        <time>2020-03-01T14:30:11.000Z</time>
      </trkpt>
      <trkpt lat="43.65826" lon="6.7761">
        <ele>201.7</ele>
        <time>2020-03-01T14:30:23.000Z</time>
      </trkpt>
      <trkpt lat="43.65817" lon="6.77604">
        <ele>201</ele>
        <time>2020-03-01T14:30:33.000Z</time>
      </trkpt>
      <trkpt lat="43.65807" lon="6.77604">
        <ele>201.2</ele>
        <time>2020-03-01T14:30:41.000Z</time>
      </trkpt>
      <trkpt lat="43.65799" lon="6.77607">
        <ele>202</ele>
        <time>2020-03-01T14:30:51.000Z</time>
      </trkpt>
      <trkpt lat="43.65789" lon="6.77606">
        <ele>203.2</ele>
        <time>2020-03-01T14:30:57.000Z</time>
      </trkpt>
      <trkpt lat="43.65779" lon="6.77603">
        <ele>212</ele>
        <time>2020-03-01T14:31:10.000Z</time>
      </trkpt>
      <trkpt lat="43.65774" lon="6.77592">
        <ele>215.1</ele>
        <time>2020-03-01T14:31:21.000Z</time>
      </trkpt>
      <trkpt lat="43.65765" lon="6.77589">
        <ele>218</ele>
        <time>2020-03-01T14:31:33.000Z</time>
      </trkpt>
      <trkpt lat="43.65755" lon="6.77589">
        <ele>219.3</ele>
        <time>2020-03-01T14:31:41.000Z</time>
      </trkpt>
      <trkpt lat="43.65746" lon="6.7759">
        <ele>220</ele>
        <time>2020-03-01T14:31:48.000Z</time>
      </trkpt>
      <trkpt lat="43.65736" lon="6.77589">
        <ele>220.4</ele>
        <time>2020-03-01T14:31:57.000Z</time>
      </trkpt>
      <trkpt lat="43.65727" lon="6.77594">
        <ele>219.2</ele>
        <time>2020-03-01T14:32:08.000Z</time>
      </trkpt>
      <trkpt lat="43.65718" lon="6.77599">
        <ele>220.1</ele>
        <time>2020-03-01T14:32:32.000Z</time>
      </trkpt>
      <trkpt lat="43.65712" lon="6.77609">
        <ele>219.9</ele>
        <time>2020-03-01T14:33:01.000Z</time>
      </trkpt>
      <trkpt lat="43.65708" lon="6.7762">
        <ele>219.6</ele>
        <time>2020-03-01T14:33:09.000Z</time>
      </trkpt>
      <trkpt lat="43.657" lon="6.7763">
        <ele>219.2</ele>
        <time>2020-03-01T14:33:19.000Z</time>
      </trkpt>
      <trkpt lat="43.65691" lon="6.77629">
        <ele>217.4</ele>
        <time>2020-03-01T14:33:29.000Z</time>
      </trkpt>
      <trkpt lat="43.65682" lon="6.7763">
        <ele>217</ele>
        <time>2020-03-01T14:33:41.000Z</time>
      </trkpt>
      <trkpt lat="43.65672" lon="6.7763">
        <ele>216.3</ele>
        <time>2020-03-01T14:33:50.000Z</time>
      </trkpt>
      <trkpt lat="43.65662" lon="6.77633">
        <ele>215</ele>
        <time>2020-03-01T14:34:01.000Z</time>
      </trkpt>
      <trkpt lat="43.65653" lon="6.77632">
        <ele>213.8</ele>
        <time>2020-03-01T14:34:10.000Z</time>
      </trkpt>
      <trkpt lat="43.65643" lon="6.77634">
        <ele>213.4</ele>
        <time>2020-03-01T14:34:19.000Z</time>
      </trkpt>
      <trkpt lat="43.65634" lon="6.77632">
        <ele>213.3</ele>
        <time>2020-03-01T14:34:31.000Z</time>
      </trkpt>
      <trkpt lat="43.65626" lon="6.77625">
        <ele>211.1</ele>
        <time>2020-03-01T14:34:41.000Z</time>
      </trkpt>
      <trkpt lat="43.6562" lon="6.77614">
        <ele>207.7</ele>
        <time>2020-03-01T14:34:54.000Z</time>
      </trkpt>
      <trkpt lat="43.65612" lon="6.77606">
        <ele>204.6</ele>
        <time>2020-03-01T14:35:04.000Z</time>
      </trkpt>
      <trkpt lat="43.65607" lon="6.77595">
        <ele>202.1</ele>
        <time>2020-03-01T14:35:14.000Z</time>
      </trkpt>
      <trkpt lat="43.65598" lon="6.77597">
        <ele>200.4</ele>
        <time>2020-03-01T14:35:21.000Z</time>
      </trkpt>
      <trkpt lat="43.65587" lon="6.77597">
        <ele>197.1</ele>
        <time>2020-03-01T14:35:30.000Z</time>
      </trkpt>
      <trkpt lat="43.65579" lon="6.77604">
        <ele>195.3</ele>
        <time>2020-03-01T14:35:37.000Z</time>
      </trkpt>
      <trkpt lat="43.65573" lon="6.77613">
        <ele>194</ele>
        <time>2020-03-01T14:35:49.000Z</time>
      </trkpt>
      <trkpt lat="43.65565" lon="6.77622">
        <ele>193.8</ele>
        <time>2020-03-01T14:36:01.000Z</time>
      </trkpt>
      <trkpt lat="43.65556" lon="6.77628">
        <ele>193.5</ele>
        <time>2020-03-01T14:36:08.000Z</time>
      </trkpt>
      <trkpt lat="43.65546" lon="6.7763">
        <ele>192.6</ele>
        <time>2020-03-01T14:36:16.000Z</time>
      </trkpt>
      <trkpt lat="43.65538" lon="6.77634">
        <ele>191.1</ele>
        <time>2020-03-01T14:36:26.000Z</time>
      </trkpt>
      <trkpt lat="43.6553" lon="6.77641">
        <ele>189.7</ele>
        <time>2020-03-01T14:36:36.000Z</time>
      </trkpt>
      <trkpt lat="43.6553" lon="6.77657">
        <ele>191.4</ele>
        <time>2020-03-01T14:36:43.000Z</time>
      </trkpt>
      <trkpt lat="43.65525" lon="6.77671">
        <ele>197.9</ele>
        <time>2020-03-01T14:37:24.000Z</time>
      </trkpt>
      <trkpt lat="43.65516" lon="6.77674">
        <ele>198.9</ele>
        <time>2020-03-01T14:37:36.000Z</time>
      </trkpt>
      <trkpt lat="43.65507" lon="6.77677">
        <ele>200.1</ele>
        <time>2020-03-01T14:37:46.000Z</time>
      </trkpt>
      <trkpt lat="43.65501" lon="6.77687">
        <ele>201.1</ele>
        <time>2020-03-01T14:37:53.000Z</time>
      </trkpt>
      <trkpt lat="43.65495" lon="6.77696">
        <ele>203.3</ele>
        <time>2020-03-01T14:38:00.000Z</time>
      </trkpt>
      <trkpt lat="43.65488" lon="6.77706">
        <ele>206.7</ele>
        <time>2020-03-01T14:38:11.000Z</time>
      </trkpt>
      <trkpt lat="43.65479" lon="6.7771">
        <ele>208.5</ele>
        <time>2020-03-01T14:38:21.000Z</time>
      </trkpt>
      <trkpt lat="43.65471" lon="6.77715">
        <ele>209.8</ele>
        <time>2020-03-01T14:38:31.000Z</time>
      </trkpt>
      <trkpt lat="43.65462" lon="6.77717">
        <ele>210.4</ele>
        <time>2020-03-01T14:38:40.000Z</time>
      </trkpt>
      <trkpt lat="43.65454" lon="6.77725">
        <ele>211</ele>
        <time>2020-03-01T14:38:51.000Z</time>
      </trkpt>
      <trkpt lat="43.65452" lon="6.77737">
        <ele>212.1</ele>
        <time>2020-03-01T14:38:59.000Z</time>
      </trkpt>
      <trkpt lat="43.65445" lon="6.77745">
        <ele>212.3</ele>
        <time>2020-03-01T14:39:15.000Z</time>
      </trkpt>
      <trkpt lat="43.65439" lon="6.77755">
        <ele>212.6</ele>
        <time>2020-03-01T14:39:23.000Z</time>
      </trkpt>
      <trkpt lat="43.65435" lon="6.77767">
        <ele>213.3</ele>
        <time>2020-03-01T14:39:31.000Z</time>
      </trkpt>
      <trkpt lat="43.65431" lon="6.7778">
        <ele>214.7</ele>
        <time>2020-03-01T14:39:40.000Z</time>
      </trkpt>
      <trkpt lat="43.65421" lon="6.77785">
        <ele>217.5</ele>
        <time>2020-03-01T14:39:54.000Z</time>
      </trkpt>
      <trkpt lat="43.65413" lon="6.77781">
        <ele>220</ele>
        <time>2020-03-01T14:40:08.000Z</time>
      </trkpt>
      <trkpt lat="43.65402" lon="6.7778">
        <ele>221.6</ele>
        <time>2020-03-01T14:40:20.000Z</time>
      </trkpt>
      <trkpt lat="43.65395" lon="6.77788">
        <ele>222.9</ele>
        <time>2020-03-01T14:40:28.000Z</time>
      </trkpt>
      <trkpt lat="43.65388" lon="6.77797">
        <ele>223.8</ele>
        <time>2020-03-01T14:40:40.000Z</time>
      </trkpt>
      <trkpt lat="43.65384" lon="6.77809">
        <ele>224.3</ele>
        <time>2020-03-01T14:40:51.000Z</time>
      </trkpt>
      <trkpt lat="43.65381" lon="6.77821">
        <ele>225.3</ele>
        <time>2020-03-01T14:41:03.000Z</time>
      </trkpt>
      <trkpt lat="43.65381" lon="6.77835">
        <ele>226.5</ele>
        <time>2020-03-01T14:41:10.000Z</time>
      </trkpt>
      <trkpt lat="43.65375" lon="6.77844">
        <ele>227.5</ele>
        <time>2020-03-01T14:41:17.000Z</time>
      </trkpt>
      <trkpt lat="43.6537" lon="6.77855">
        <ele>233.4</ele>
        <time>2020-03-01T14:41:27.000Z</time>
      </trkpt>
      <trkpt lat="43.65366" lon="6.77866">
        <ele>235</ele>
        <time>2020-03-01T14:42:05.000Z</time>
      </trkpt>
      <trkpt lat="43.65361" lon="6.77878">
        <ele>237.4</ele>
        <time>2020-03-01T14:42:17.000Z</time>
      </trkpt>
      <trkpt lat="43.65356" lon="6.77889">
        <ele>239.8</ele>
        <time>2020-03-01T14:42:27.000Z</time>
      </trkpt>
      <trkpt lat="43.65352" lon="6.779">
        <ele>241.2</ele>
        <time>2020-03-01T14:42:32.000Z</time>
      </trkpt>
      <trkpt lat="43.65349" lon="6.77912">
        <ele>243.2</ele>
        <time>2020-03-01T14:42:40.000Z</time>
      </trkpt>
      <trkpt lat="43.65343" lon="6.77922">
        <ele>246.5</ele>
        <time>2020-03-01T14:42:51.000Z</time>
      </trkpt>
      <trkpt lat="43.65335" lon="6.77928">
        <ele>249.2</ele>
        <time>2020-03-01T14:43:00.000Z</time>
      </trkpt>
      <trkpt lat="43.65329" lon="6.77938">
        <ele>252.8</ele>
        <time>2020-03-01T14:43:13.000Z</time>
      </trkpt>
      <trkpt lat="43.6532" lon="6.77944">
        <ele>256.1</ele>
        <time>2020-03-01T14:43:26.000Z</time>
      </trkpt>
      <trkpt lat="43.65312" lon="6.7795">
        <ele>258.6</ele>
        <time>2020-03-01T14:43:35.000Z</time>
      </trkpt>
      <trkpt lat="43.65306" lon="6.7796">
        <ele>260.5</ele>
        <time>2020-03-01T14:43:42.000Z</time>
      </trkpt>
      <trkpt lat="43.65299" lon="6.7797">
        <ele>263.5</ele>
        <time>2020-03-01T14:43:52.000Z</time>
      </trkpt>
      <trkpt lat="43.6529" lon="6.77975">
        <ele>266.2</ele>
        <time>2020-03-01T14:44:02.000Z</time>
      </trkpt>
      <trkpt lat="43.65281" lon="6.77981">
        <ele>269.1</ele>
        <time>2020-03-01T14:44:16.000Z</time>
      </trkpt>
      <trkpt lat="43.65272" lon="6.77981">
        <ele>270.8</ele>
        <time>2020-03-01T14:44:30.000Z</time>
      </trkpt>
      <trkpt lat="43.65264" lon="6.77988">
        <ele>271.7</ele>
        <time>2020-03-01T14:44:38.000Z</time>
      </trkpt>
      <trkpt lat="43.65255" lon="6.77987">
        <ele>270.9</ele>
        <time>2020-03-01T14:44:49.000Z</time>
      </trkpt>
      <trkpt lat="43.65245" lon="6.77987">
        <ele>270.1</ele>
        <time>2020-03-01T14:45:00.000Z</time>
      </trkpt>
      <trkpt lat="43.65236" lon="6.7799">
        <ele>270.2</ele>
        <time>2020-03-01T14:45:15.000Z</time>
      </trkpt>
      <trkpt lat="43.65228" lon="6.77995">
        <ele>269.9</ele>
        <time>2020-03-01T14:45:25.000Z</time>
      </trkpt>
      <trkpt lat="43.65219" lon="6.78">
        <ele>269.7</ele>
        <time>2020-03-01T14:45:33.000Z</time>
      </trkpt>
      <trkpt lat="43.65211" lon="6.78007">
        <ele>269</ele>
        <time>2020-03-01T14:45:42.000Z</time>
      </trkpt>
      <trkpt lat="43.65202" lon="6.78008">
        <ele>269</ele>
        <time>2020-03-01T14:45:54.000Z</time>
      </trkpt>
      <trkpt lat="43.65193" lon="6.78007">
        <ele>268.9</ele>
        <time>2020-03-01T14:46:07.000Z</time>
      </trkpt>
      <trkpt lat="43.65184" lon="6.78013">
        <ele>267.4</ele>
        <time>2020-03-01T14:46:18.000Z</time>
      </trkpt>
      <trkpt lat="43.65176" lon="6.78017">
        <ele>266.3</ele>
        <time>2020-03-01T14:46:29.000Z</time>
      </trkpt>
      <trkpt lat="43.65167" lon="6.78025">
        <ele>264.9</ele>
        <time>2020-03-01T14:46:43.000Z</time>
      </trkpt>
      <trkpt lat="43.65161" lon="6.78035">
        <ele>267.8</ele>
        <time>2020-03-01T14:47:57.000Z</time>
      </trkpt>
      <trkpt lat="43.65152" lon="6.78042">
        <ele>268.8</ele>
        <time>2020-03-01T14:48:10.000Z</time>
      </trkpt>
      <trkpt lat="43.65143" lon="6.78043">
        <ele>271</ele>
        <time>2020-03-01T14:48:21.000Z</time>
      </trkpt>
      <trkpt lat="43.65135" lon="6.7805">
        <ele>275.4</ele>
        <time>2020-03-01T14:48:35.000Z</time>
      </trkpt>
      <trkpt lat="43.65125" lon="6.78053">
        <ele>278.8</ele>
        <time>2020-03-01T14:48:46.000Z</time>
      </trkpt>
      <trkpt lat="43.65118" lon="6.78062">
        <ele>280.7</ele>
        <time>2020-03-01T14:48:54.000Z</time>
      </trkpt>
      <trkpt lat="43.65108" lon="6.78063">
        <ele>282.9</ele>
        <time>2020-03-01T14:49:08.000Z</time>
      </trkpt>
      <trkpt lat="43.65099" lon="6.78066">
        <ele>284.5</ele>
        <time>2020-03-01T14:49:20.000Z</time>
      </trkpt>
      <trkpt lat="43.6509" lon="6.78066">
        <ele>285.5</ele>
        <time>2020-03-01T14:49:30.000Z</time>
      </trkpt>
      <trkpt lat="43.65082" lon="6.78071">
        <ele>286.1</ele>
        <time>2020-03-01T14:49:37.000Z</time>
      </trkpt>
      <trkpt lat="43.65073" lon="6.78076">
        <ele>285.8</ele>
        <time>2020-03-01T14:49:51.000Z</time>
      </trkpt>
      <trkpt lat="43.65064" lon="6.78075">
        <ele>300.7</ele>
        <time>2020-03-01T14:50:28.000Z</time>
      </trkpt>
      <trkpt lat="43.65054" lon="6.78077">
        <ele>302.1</ele>
        <time>2020-03-01T14:50:38.000Z</time>
      </trkpt>
      <trkpt lat="43.65044" lon="6.78079">
        <ele>304.1</ele>
        <time>2020-03-01T14:50:47.000Z</time>
      </trkpt>
      <trkpt lat="43.65038" lon="6.78068">
        <ele>305.2</ele>
        <time>2020-03-01T14:51:00.000Z</time>
      </trkpt>
      <trkpt lat="43.65028" lon="6.78064">
        <ele>305.3</ele>
        <time>2020-03-01T14:51:13.000Z</time>
      </trkpt>
      <trkpt lat="43.65019" lon="6.78069">
        <ele>306.7</ele>
        <time>2020-03-01T14:51:22.000Z</time>
      </trkpt>
      <trkpt lat="43.65015" lon="6.78081">
        <ele>308.4</ele>
        <time>2020-03-01T14:51:31.000Z</time>
      </trkpt>
      <trkpt lat="43.65024" lon="6.78077">
        <ele>316.5</ele>
        <time>2020-03-01T14:52:04.000Z</time>
      </trkpt>
      <trkpt lat="43.65033" lon="6.78072">
        <ele>318.6</ele>
        <time>2020-03-01T14:52:12.000Z</time>
      </trkpt>
      <trkpt lat="43.65042" lon="6.78072">
        <ele>320.5</ele>
        <time>2020-03-01T14:52:25.000Z</time>
      </trkpt>
      <trkpt lat="43.65041" lon="6.78059">
        <ele>323.3</ele>
        <time>2020-03-01T14:52:42.000Z</time>
      </trkpt>
      <trkpt lat="43.65036" lon="6.78048">
        <ele>325.1</ele>
        <time>2020-03-01T14:52:52.000Z</time>
      </trkpt>
      <trkpt lat="43.65026" lon="6.78047">
        <ele>327.8</ele>
        <time>2020-03-01T14:53:14.000Z</time>
      </trkpt>
      <trkpt lat="43.65016" lon="6.78046">
        <ele>329.1</ele>
        <time>2020-03-01T14:53:23.000Z</time>
      </trkpt>
      <trkpt lat="43.65006" lon="6.78045">
        <ele>330.7</ele>
        <time>2020-03-01T14:53:31.000Z</time>
      </trkpt>
      <trkpt lat="43.64997" lon="6.78041">
        <ele>332.2</ele>
        <time>2020-03-01T14:53:44.000Z</time>
      </trkpt>
      <trkpt lat="43.64988" lon="6.78035">
        <ele>333.4</ele>
        <time>2020-03-01T14:53:55.000Z</time>
      </trkpt>
      <trkpt lat="43.64979" lon="6.78038">
        <ele>336.4</ele>
        <time>2020-03-01T14:54:09.000Z</time>
      </trkpt>
      <trkpt lat="43.64969" lon="6.7804">
        <ele>339.8</ele>
        <time>2020-03-01T14:54:22.000Z</time>
      </trkpt>
      <trkpt lat="43.6496" lon="6.78036">
        <ele>347.3</ele>
        <time>2020-03-01T14:55:17.000Z</time>
      </trkpt>
      <trkpt lat="43.64952" lon="6.7803">
        <ele>348.7</ele>
        <time>2020-03-01T14:55:30.000Z</time>
      </trkpt>
      <trkpt lat="43.64943" lon="6.78026">
        <ele>353</ele>
        <time>2020-03-01T14:55:52.000Z</time>
      </trkpt>
      <trkpt lat="43.64934" lon="6.78022">
        <ele>357.1</ele>
        <time>2020-03-01T14:56:07.000Z</time>
      </trkpt>
      <trkpt lat="43.64924" lon="6.78022">
        <ele>359.5</ele>
        <time>2020-03-01T14:56:16.000Z</time>
      </trkpt>
      <trkpt lat="43.64915" lon="6.78019">
        <ele>362.7</ele>
        <time>2020-03-01T14:56:28.000Z</time>
      </trkpt>
      <trkpt lat="43.64905" lon="6.7802">
        <ele>364.8</ele>
        <time>2020-03-01T14:56:37.000Z</time>
      </trkpt>
      <trkpt lat="43.64896" lon="6.78017">
        <ele>368.1</ele>
        <time>2020-03-01T14:56:48.000Z</time>
      </trkpt>
      <trkpt lat="43.64887" lon="6.78016">
        <ele>371.1</ele>
        <time>2020-03-01T14:56:58.000Z</time>
      </trkpt>
      <trkpt lat="43.64878" lon="6.78015">
        <ele>374.3</ele>
        <time>2020-03-01T14:57:11.000Z</time>
      </trkpt>
      <trkpt lat="43.6487" lon="6.78008">
        <ele>375.7</ele>
        <time>2020-03-01T14:57:29.000Z</time>
      </trkpt>
      <trkpt lat="43.64861" lon="6.78004">
        <ele>376.9</ele>
        <time>2020-03-01T14:57:40.000Z</time>
      </trkpt>
      <trkpt lat="43.64852" lon="6.78005">
        <ele>378.9</ele>
        <time>2020-03-01T14:58:00.000Z</time>
      </trkpt>
      <trkpt lat="43.64842" lon="6.78003">
        <ele>380.5</ele>
        <time>2020-03-01T14:58:11.000Z</time>
      </trkpt>
      <trkpt lat="43.64833" lon="6.78006">
        <ele>382.1</ele>
        <time>2020-03-01T14:58:25.000Z</time>
      </trkpt>
      <trkpt lat="43.64825" lon="6.78">
        <ele>383.1</ele>
        <time>2020-03-01T14:58:37.000Z</time>
      </trkpt>
      <trkpt lat="43.64816" lon="6.77996">
        <ele>384.3</ele>
        <time>2020-03-01T14:58:58.000Z</time>
      </trkpt>
      <trkpt lat="43.64808" lon="6.77989">
        <ele>385.5</ele>
        <time>2020-03-01T14:59:10.000Z</time>
      </trkpt>
      <trkpt lat="43.64797" lon="6.77982">
        <ele>386.5</ele>
        <time>2020-03-01T14:59:21.000Z</time>
      </trkpt>
      <trkpt lat="43.64788" lon="6.77979">
        <ele>386.8</ele>
        <time>2020-03-01T14:59:29.000Z</time>
      </trkpt>
      <trkpt lat="43.64781" lon="6.7797">
        <ele>386.2</ele>
        <time>2020-03-01T14:59:37.000Z</time>
      </trkpt>
      <trkpt lat="43.64772" lon="6.77975">
        <ele>385.5</ele>
        <time>2020-03-01T14:59:45.000Z</time>
      </trkpt>
      <trkpt lat="43.64765" lon="6.77984">
        <ele>385.5</ele>
        <time>2020-03-01T14:59:52.000Z</time>
      </trkpt>
      <trkpt lat="43.6476" lon="6.77994">
        <ele>388.2</ele>
        <time>2020-03-01T15:00:16.000Z</time>
      </trkpt>
      <trkpt lat="43.64751" lon="6.77998">
        <ele>390.1</ele>
        <time>2020-03-01T15:00:30.000Z</time>
      </trkpt>
      <trkpt lat="43.64741" lon="6.78001">
        <ele>391.5</ele>
        <time>2020-03-01T15:00:41.000Z</time>
      </trkpt>
      <trkpt lat="43.64733" lon="6.78005">
        <ele>391.5</ele>
        <time>2020-03-01T15:00:53.000Z</time>
      </trkpt>
      <trkpt lat="43.64724" lon="6.78003">
        <ele>391.1</ele>
        <time>2020-03-01T15:01:02.000Z</time>
      </trkpt>
      <trkpt lat="43.64715" lon="6.78004">
        <ele>390.7</ele>
        <time>2020-03-01T15:01:14.000Z</time>
      </trkpt>
      <trkpt lat="43.64711" lon="6.78018">
        <ele>391.4</ele>
        <time>2020-03-01T15:01:19.000Z</time>
      </trkpt>
      <trkpt lat="43.64704" lon="6.7801">
        <ele>398.6</ele>
        <time>2020-03-01T15:02:29.000Z</time>
      </trkpt>
      <trkpt lat="43.64694" lon="6.78012">
        <ele>400.6</ele>
        <time>2020-03-01T15:02:40.000Z</time>
      </trkpt>
      <trkpt lat="43.64685" lon="6.78013">
        <ele>403.4</ele>
        <time>2020-03-01T15:02:50.000Z</time>
      </trkpt>
      <trkpt lat="43.64676" lon="6.78016">
        <ele>406.1</ele>
        <time>2020-03-01T15:02:57.000Z</time>
      </trkpt>
      <trkpt lat="43.64666" lon="6.78015">
        <ele>409.1</ele>
        <time>2020-03-01T15:03:06.000Z</time>
      </trkpt>
      <trkpt lat="43.64659" lon="6.78007">
        <ele>410.9</ele>
        <time>2020-03-01T15:03:24.000Z</time>
      </trkpt>
      <trkpt lat="43.64663" lon="6.77994">
        <ele>411.3</ele>
        <time>2020-03-01T15:03:33.000Z</time>
      </trkpt>
      <trkpt lat="43.64669" lon="6.77984">
        <ele>412.6</ele>
        <time>2020-03-01T15:03:40.000Z</time>
      </trkpt>
      <trkpt lat="43.64671" lon="6.77971">
        <ele>414.8</ele>
        <time>2020-03-01T15:03:50.000Z</time>
      </trkpt>
      <trkpt lat="43.64674" lon="6.77959">
        <ele>417.1</ele>
        <time>2020-03-01T15:03:58.000Z</time>
      </trkpt>
      <trkpt lat="43.64678" lon="6.77947">
        <ele>420</ele>
        <time>2020-03-01T15:04:07.000Z</time>
      </trkpt>
      <trkpt lat="43.64681" lon="6.77934">
        <ele>421.8</ele>
        <time>2020-03-01T15:04:16.000Z</time>
      </trkpt>
      <trkpt lat="43.64684" lon="6.77922">
        <ele>423</ele>
        <time>2020-03-01T15:04:28.000Z</time>
      </trkpt>
      <trkpt lat="43.6469" lon="6.77912">
        <ele>424.5</ele>
        <time>2020-03-01T15:04:38.000Z</time>
      </trkpt>
      <trkpt lat="43.64691" lon="6.77899">
        <ele>426.7</ele>
        <time>2020-03-01T15:05:00.000Z</time>
      </trkpt>
      <trkpt lat="43.64692" lon="6.77886">
        <ele>425.6</ele>
        <time>2020-03-01T15:06:22.000Z</time>
      </trkpt>
      <trkpt lat="43.647" lon="6.77892">
        <ele>430</ele>
        <time>2020-03-01T15:09:07.000Z</time>
      </trkpt>
      <trkpt lat="43.64696" lon="6.77881">
        <ele>425</ele>
        <time>2020-03-01T15:12:09.000Z</time>
      </trkpt>
      <trkpt lat="43.6469" lon="6.77871">
        <ele>424.3</ele>
        <time>2020-03-01T15:12:21.000Z</time>
      </trkpt>
      <trkpt lat="43.64683" lon="6.77863">
        <ele>424.6</ele>
        <time>2020-03-01T15:12:29.000Z</time>
      </trkpt>
      <trkpt lat="43.64676" lon="6.77853">
        <ele>423.3</ele>
        <time>2020-03-01T15:12:47.000Z</time>
      </trkpt>
      <trkpt lat="43.6467" lon="6.77843">
        <ele>423.2</ele>
        <time>2020-03-01T15:12:58.000Z</time>
      </trkpt>
      <trkpt lat="43.64663" lon="6.77834">
        <ele>422.2</ele>
        <time>2020-03-01T15:13:11.000Z</time>
      </trkpt>
      <trkpt lat="43.64656" lon="6.77825">
        <ele>420.9</ele>
        <time>2020-03-01T15:13:22.000Z</time>
      </trkpt>
      <trkpt lat="43.64653" lon="6.77813">
        <ele>419.2</ele>
        <time>2020-03-01T15:13:33.000Z</time>
      </trkpt>
      <trkpt lat="43.64643" lon="6.77809">
        <ele>419.1</ele>
        <time>2020-03-01T15:13:41.000Z</time>
      </trkpt>
      <trkpt lat="43.64632" lon="6.77808">
        <ele>418.4</ele>
        <time>2020-03-01T15:13:51.000Z</time>
      </trkpt>
      <trkpt lat="43.64624" lon="6.77795">
        <ele>419.1</ele>
        <time>2020-03-01T15:14:14.000Z</time>
      </trkpt>
      <trkpt lat="43.64615" lon="6.77796">
        <ele>419.8</ele>
        <time>2020-03-01T15:14:26.000Z</time>
      </trkpt>
      <trkpt lat="43.64605" lon="6.77799">
        <ele>419.2</ele>
        <time>2020-03-01T15:14:34.000Z</time>
      </trkpt>
      <trkpt lat="43.64597" lon="6.77806">
        <ele>418.4</ele>
        <time>2020-03-01T15:14:44.000Z</time>
      </trkpt>
      <trkpt lat="43.64588" lon="6.77805">
        <ele>417.5</ele>
        <time>2020-03-01T15:14:49.000Z</time>
      </trkpt>
      <trkpt lat="43.6458" lon="6.77812">
        <ele>415.8</ele>
        <time>2020-03-01T15:15:01.000Z</time>
      </trkpt>
      <trkpt lat="43.64569" lon="6.77825">
        <ele>413.6</ele>
        <time>2020-03-01T15:15:24.000Z</time>
      </trkpt>
      <trkpt lat="43.6456" lon="6.77829">
        <ele>412.9</ele>
        <time>2020-03-01T15:15:32.000Z</time>
      </trkpt>
      <trkpt lat="43.64551" lon="6.77831">
        <ele>412.3</ele>
        <time>2020-03-01T15:15:39.000Z</time>
      </trkpt>
      <trkpt lat="43.64543" lon="6.7784">
        <ele>411.2</ele>
        <time>2020-03-01T15:15:50.000Z</time>
      </trkpt>
      <trkpt lat="43.64537" lon="6.77849">
        <ele>410.3</ele>
        <time>2020-03-01T15:15:57.000Z</time>
      </trkpt>
      <trkpt lat="43.64529" lon="6.77858">
        <ele>409.5</ele>
        <time>2020-03-01T15:16:05.000Z</time>
      </trkpt>
      <trkpt lat="43.64521" lon="6.77866">
        <ele>408.4</ele>
        <time>2020-03-01T15:16:14.000Z</time>
      </trkpt>
      <trkpt lat="43.64516" lon="6.77876">
        <ele>406.8</ele>
        <time>2020-03-01T15:16:25.000Z</time>
      </trkpt>
      <trkpt lat="43.64508" lon="6.77884">
        <ele>405.5</ele>
        <time>2020-03-01T15:16:34.000Z</time>
      </trkpt>
      <trkpt lat="43.645" lon="6.77889">
        <ele>405.1</ele>
        <time>2020-03-01T15:16:41.000Z</time>
      </trkpt>
      <trkpt lat="43.64494" lon="6.77899">
        <ele>403.5</ele>
        <time>2020-03-01T15:16:50.000Z</time>
      </trkpt>
      <trkpt lat="43.64485" lon="6.77905">
        <ele>402.3</ele>
        <time>2020-03-01T15:17:01.000Z</time>
      </trkpt>
      <trkpt lat="43.64476" lon="6.77903">
        <ele>401.9</ele>
        <time>2020-03-01T15:17:18.000Z</time>
      </trkpt>
      <trkpt lat="43.64467" lon="6.77905">
        <ele>400.6</ele>
        <time>2020-03-01T15:17:28.000Z</time>
      </trkpt>
      <trkpt lat="43.64458" lon="6.77914">
        <ele>399.9</ele>
        <time>2020-03-01T15:17:34.000Z</time>
      </trkpt>
      <trkpt lat="43.6445" lon="6.7792">
        <ele>399.9</ele>
        <time>2020-03-01T15:17:44.000Z</time>
      </trkpt>
      <trkpt lat="43.64441" lon="6.77919">
        <ele>400.4</ele>
        <time>2020-03-01T15:17:58.000Z</time>
      </trkpt>
      <trkpt lat="43.64432" lon="6.77915">
        <ele>399.8</ele>
        <time>2020-03-01T15:18:06.000Z</time>
      </trkpt>
      <trkpt lat="43.64423" lon="6.77919">
        <ele>398.8</ele>
        <time>2020-03-01T15:18:13.000Z</time>
      </trkpt>
      <trkpt lat="43.64417" lon="6.7793">
        <ele>396.2</ele>
        <time>2020-03-01T15:18:22.000Z</time>
      </trkpt>
      <trkpt lat="43.64409" lon="6.77936">
        <ele>394.9</ele>
        <time>2020-03-01T15:18:30.000Z</time>
      </trkpt>
      <trkpt lat="43.64398" lon="6.77936">
        <ele>393.1</ele>
        <time>2020-03-01T15:18:38.000Z</time>
      </trkpt>
      <trkpt lat="43.64389" lon="6.77936">
        <ele>391.8</ele>
        <time>2020-03-01T15:18:48.000Z</time>
      </trkpt>
      <trkpt lat="43.6438" lon="6.7793">
        <ele>390</ele>
        <time>2020-03-01T15:19:04.000Z</time>
      </trkpt>
      <trkpt lat="43.64372" lon="6.77921">
        <ele>388.7</ele>
        <time>2020-03-01T15:19:10.000Z</time>
      </trkpt>
      <trkpt lat="43.64363" lon="6.77914">
        <ele>387.9</ele>
        <time>2020-03-01T15:19:24.000Z</time>
      </trkpt>
      <trkpt lat="43.64358" lon="6.77902">
        <ele>387.5</ele>
        <time>2020-03-01T15:19:38.000Z</time>
      </trkpt>
      <trkpt lat="43.64358" lon="6.77889">
        <ele>386.9</ele>
        <time>2020-03-01T15:19:46.000Z</time>
      </trkpt>
      <trkpt lat="43.64355" lon="6.77877">
        <ele>385.5</ele>
        <time>2020-03-01T15:19:53.000Z</time>
      </trkpt>
      <trkpt lat="43.64354" lon="6.77864">
        <ele>384</ele>
        <time>2020-03-01T15:20:03.000Z</time>
      </trkpt>
      <trkpt lat="43.64357" lon="6.77851">
        <ele>382.3</ele>
        <time>2020-03-01T15:20:12.000Z</time>
      </trkpt>
      <trkpt lat="43.64361" lon="6.77839">
        <ele>381.2</ele>
        <time>2020-03-01T15:20:20.000Z</time>
      </trkpt>
      <trkpt lat="43.64363" lon="6.77827">
        <ele>379.8</ele>
        <time>2020-03-01T15:20:28.000Z</time>
      </trkpt>
      <trkpt lat="43.64366" lon="6.77814">
        <ele>378.8</ele>
        <time>2020-03-01T15:20:37.000Z</time>
      </trkpt>
      <trkpt lat="43.64368" lon="6.778">
        <ele>378.3</ele>
        <time>2020-03-01T15:20:47.000Z</time>
      </trkpt>
      <trkpt lat="43.64367" lon="6.77787">
        <ele>377.1</ele>
        <time>2020-03-01T15:20:59.000Z</time>
      </trkpt>
      <trkpt lat="43.64364" lon="6.77776">
        <ele>375</ele>
        <time>2020-03-01T15:21:13.000Z</time>
      </trkpt>
      <trkpt lat="43.64361" lon="6.77763">
        <ele>372.2</ele>
        <time>2020-03-01T15:21:25.000Z</time>
      </trkpt>
      <trkpt lat="43.64356" lon="6.77751">
        <ele>370.9</ele>
        <time>2020-03-01T15:21:31.000Z</time>
      </trkpt>
      <trkpt lat="43.64355" lon="6.77739">
        <ele>369.7</ele>
        <time>2020-03-01T15:21:38.000Z</time>
      </trkpt>
      <trkpt lat="43.64352" lon="6.77727">
        <ele>369.2</ele>
        <time>2020-03-01T15:21:45.000Z</time>
      </trkpt>
      <trkpt lat="43.64348" lon="6.77716">
        <ele>369</ele>
        <time>2020-03-01T15:21:53.000Z</time>
      </trkpt>
      <trkpt lat="43.64346" lon="6.77704">
        <ele>370.6</ele>
        <time>2020-03-01T15:22:00.000Z</time>
      </trkpt>
      <trkpt lat="43.64337" lon="6.77697">
        <ele>371.6</ele>
        <time>2020-03-01T15:22:11.000Z</time>
      </trkpt>
      <trkpt lat="43.64329" lon="6.77704">
        <ele>372.9</ele>
        <time>2020-03-01T15:22:28.000Z</time>
      </trkpt>
      <trkpt lat="43.64326" lon="6.77716">
        <ele>373.4</ele>
        <time>2020-03-01T15:22:38.000Z</time>
      </trkpt>
      <trkpt lat="43.64322" lon="6.77728">
        <ele>372.4</ele>
        <time>2020-03-01T15:22:49.000Z</time>
      </trkpt>
      <trkpt lat="43.64321" lon="6.7774">
        <ele>373.4</ele>
        <time>2020-03-01T15:23:01.000Z</time>
      </trkpt>
      <trkpt lat="43.64316" lon="6.77751">
        <ele>376.4</ele>
        <time>2020-03-01T15:23:17.000Z</time>
      </trkpt>
      <trkpt lat="43.64309" lon="6.77759">
        <ele>378.1</ele>
        <time>2020-03-01T15:23:28.000Z</time>
      </trkpt>
      <trkpt lat="43.64304" lon="6.77771">
        <ele>377.7</ele>
        <time>2020-03-01T15:23:38.000Z</time>
      </trkpt>
      <trkpt lat="43.64299" lon="6.77782">
        <ele>378.1</ele>
        <time>2020-03-01T15:23:47.000Z</time>
      </trkpt>
      <trkpt lat="43.64292" lon="6.77793">
        <ele>377</ele>
        <time>2020-03-01T15:23:57.000Z</time>
      </trkpt>
      <trkpt lat="43.64284" lon="6.77801">
        <ele>375.5</ele>
        <time>2020-03-01T15:24:09.000Z</time>
      </trkpt>
      <trkpt lat="43.64276" lon="6.7781">
        <ele>374.2</ele>
        <time>2020-03-01T15:24:18.000Z</time>
      </trkpt>
      <trkpt lat="43.64271" lon="6.7782">
        <ele>375.2</ele>
        <time>2020-03-01T15:24:36.000Z</time>
      </trkpt>
      <trkpt lat="43.64267" lon="6.77831">
        <ele>376.8</ele>
        <time>2020-03-01T15:24:48.000Z</time>
      </trkpt>
      <trkpt lat="43.6426" lon="6.7784">
        <ele>378</ele>
        <time>2020-03-01T15:24:58.000Z</time>
      </trkpt>
      <trkpt lat="43.64254" lon="6.7785">
        <ele>378.5</ele>
        <time>2020-03-01T15:25:06.000Z</time>
      </trkpt>
      <trkpt lat="43.64245" lon="6.77854">
        <ele>378.6</ele>
        <time>2020-03-01T15:25:15.000Z</time>
      </trkpt>
      <trkpt lat="43.64231" lon="6.77868">
        <ele>378.5</ele>
        <time>2020-03-01T15:25:44.000Z</time>
      </trkpt>
      <trkpt lat="43.64217" lon="6.77874">
        <ele>380.9</ele>
        <time>2020-03-01T15:26:38.000Z</time>
      </trkpt>
      <trkpt lat="43.64215" lon="6.77886">
        <ele>378.8</ele>
        <time>2020-03-01T15:26:48.000Z</time>
      </trkpt>
      <trkpt lat="43.64211" lon="6.77899">
        <ele>378.3</ele>
        <time>2020-03-01T15:26:57.000Z</time>
      </trkpt>
      <trkpt lat="43.64207" lon="6.7791">
        <ele>376.7</ele>
        <time>2020-03-01T15:27:10.000Z</time>
      </trkpt>
      <trkpt lat="43.64204" lon="6.77923">
        <ele>374</ele>
        <time>2020-03-01T15:27:23.000Z</time>
      </trkpt>
      <trkpt lat="43.64199" lon="6.77934">
        <ele>373</ele>
        <time>2020-03-01T15:27:36.000Z</time>
      </trkpt>
      <trkpt lat="43.64193" lon="6.77943">
        <ele>372.7</ele>
        <time>2020-03-01T15:27:46.000Z</time>
      </trkpt>
      <trkpt lat="43.64187" lon="6.77952">
        <ele>373.3</ele>
        <time>2020-03-01T15:27:56.000Z</time>
      </trkpt>
      <trkpt lat="43.64181" lon="6.77972">
        <ele>376.6</ele>
        <time>2020-03-01T15:28:26.000Z</time>
      </trkpt>
      <trkpt lat="43.64177" lon="6.77961">
        <ele>377.6</ele>
        <time>2020-03-01T15:28:41.000Z</time>
      </trkpt>
      <trkpt lat="43.64172" lon="6.77977">
        <ele>383.1</ele>
        <time>2020-03-01T15:31:00.000Z</time>
      </trkpt>
      <trkpt lat="43.6417" lon="6.77989">
        <ele>381.2</ele>
        <time>2020-03-01T15:31:29.000Z</time>
      </trkpt>
      <trkpt lat="43.6416" lon="6.77994">
        <ele>380.3</ele>
        <time>2020-03-01T15:31:36.000Z</time>
      </trkpt>
      <trkpt lat="43.64151" lon="6.77998">
        <ele>379.9</ele>
        <time>2020-03-01T15:31:43.000Z</time>
      </trkpt>
      <trkpt lat="43.64142" lon="6.77993">
        <ele>377.9</ele>
        <time>2020-03-01T15:31:58.000Z</time>
      </trkpt>
      <trkpt lat="43.64132" lon="6.77998">
        <ele>378.4</ele>
        <time>2020-03-01T15:32:09.000Z</time>
      </trkpt>
      <trkpt lat="43.6414" lon="6.7799">
        <ele>375.7</ele>
        <time>2020-03-01T15:32:37.000Z</time>
      </trkpt>
      <trkpt lat="43.64133" lon="6.78">
        <ele>377.2</ele>
        <time>2020-03-01T15:43:59.000Z</time>
      </trkpt>
      <trkpt lat="43.64126" lon="6.7801">
        <ele>376.6</ele>
        <time>2020-03-01T15:44:06.000Z</time>
      </trkpt>
      <trkpt lat="43.64119" lon="6.78018">
        <ele>376.3</ele>
        <time>2020-03-01T15:44:16.000Z</time>
      </trkpt>
      <trkpt lat="43.64111" lon="6.78024">
        <ele>376.1</ele>
        <time>2020-03-01T15:44:26.000Z</time>
      </trkpt>
      <trkpt lat="43.64109" lon="6.78037">
        <ele>377.9</ele>
        <time>2020-03-01T15:44:37.000Z</time>
      </trkpt>
      <trkpt lat="43.64102" lon="6.78046">
        <ele>376.7</ele>
        <time>2020-03-01T15:44:49.000Z</time>
      </trkpt>
      <trkpt lat="43.64093" lon="6.7805">
        <ele>375.7</ele>
        <time>2020-03-01T15:45:00.000Z</time>
      </trkpt>
      <trkpt lat="43.64085" lon="6.78055">
        <ele>374.9</ele>
        <time>2020-03-01T15:45:09.000Z</time>
      </trkpt>
      <trkpt lat="43.64078" lon="6.78064">
        <ele>374.4</ele>
        <time>2020-03-01T15:45:18.000Z</time>
      </trkpt>
      <trkpt lat="43.64071" lon="6.78074">
        <ele>374.6</ele>
        <time>2020-03-01T15:45:28.000Z</time>
      </trkpt>
      <trkpt lat="43.64067" lon="6.78085">
        <ele>374.9</ele>
        <time>2020-03-01T15:45:38.000Z</time>
      </trkpt>
      <trkpt lat="43.6406" lon="6.78095">
        <ele>375.6</ele>
        <time>2020-03-01T15:45:49.000Z</time>
      </trkpt>
      <trkpt lat="43.64054" lon="6.78105">
        <ele>375.7</ele>
        <time>2020-03-01T15:46:00.000Z</time>
      </trkpt>
      <trkpt lat="43.64047" lon="6.78114">
        <ele>376.7</ele>
        <time>2020-03-01T15:46:08.000Z</time>
      </trkpt>
      <trkpt lat="43.6404" lon="6.78123">
        <ele>377.4</ele>
        <time>2020-03-01T15:46:16.000Z</time>
      </trkpt>
      <trkpt lat="43.64033" lon="6.78131">
        <ele>378.2</ele>
        <time>2020-03-01T15:46:26.000Z</time>
      </trkpt>
      <trkpt lat="43.64026" lon="6.78139">
        <ele>379.4</ele>
        <time>2020-03-01T15:46:35.000Z</time>
      </trkpt>
      <trkpt lat="43.64018" lon="6.78146">
        <ele>379.7</ele>
        <time>2020-03-01T15:46:44.000Z</time>
      </trkpt>
      <trkpt lat="43.64011" lon="6.78155">
        <ele>379.1</ele>
        <time>2020-03-01T15:46:53.000Z</time>
      </trkpt>
      <trkpt lat="43.64004" lon="6.78165">
        <ele>378.4</ele>
        <time>2020-03-01T15:47:02.000Z</time>
      </trkpt>
      <trkpt lat="43.63995" lon="6.78171">
        <ele>378.4</ele>
        <time>2020-03-01T15:47:12.000Z</time>
      </trkpt>
      <trkpt lat="43.63987" lon="6.78176">
        <ele>378.1</ele>
        <time>2020-03-01T15:47:21.000Z</time>
      </trkpt>
      <trkpt lat="43.63979" lon="6.78184">
        <ele>378.1</ele>
        <time>2020-03-01T15:47:30.000Z</time>
      </trkpt>
      <trkpt lat="43.63975" lon="6.78195">
        <ele>378.4</ele>
        <time>2020-03-01T15:47:37.000Z</time>
      </trkpt>
      <trkpt lat="43.63972" lon="6.78208">
        <ele>378.2</ele>
        <time>2020-03-01T15:47:45.000Z</time>
      </trkpt>
      <trkpt lat="43.63971" lon="6.7822">
        <ele>376.7</ele>
        <time>2020-03-01T15:47:53.000Z</time>
      </trkpt>
      <trkpt lat="43.6397" lon="6.78234">
        <ele>375.4</ele>
        <time>2020-03-01T15:48:01.000Z</time>
      </trkpt>
      <trkpt lat="43.63971" lon="6.78248">
        <ele>374.2</ele>
        <time>2020-03-01T15:48:10.000Z</time>
      </trkpt>
      <trkpt lat="43.63972" lon="6.7826">
        <ele>374.7</ele>
        <time>2020-03-01T15:48:18.000Z</time>
      </trkpt>
      <trkpt lat="43.63973" lon="6.78274">
        <ele>374.8</ele>
        <time>2020-03-01T15:48:27.000Z</time>
      </trkpt>
      <trkpt lat="43.63972" lon="6.78286">
        <ele>372.1</ele>
        <time>2020-03-01T15:48:36.000Z</time>
      </trkpt>
      <trkpt lat="43.63971" lon="6.78299">
        <ele>371.1</ele>
        <time>2020-03-01T15:48:45.000Z</time>
      </trkpt>
      <trkpt lat="43.63967" lon="6.78311">
        <ele>371.7</ele>
        <time>2020-03-01T15:48:53.000Z</time>
      </trkpt>
      <trkpt lat="43.63961" lon="6.7832">
        <ele>374.4</ele>
        <time>2020-03-01T15:49:01.000Z</time>
      </trkpt>
      <trkpt lat="43.63953" lon="6.78328">
        <ele>374.9</ele>
        <time>2020-03-01T15:49:09.000Z</time>
      </trkpt>
      <trkpt lat="43.63944" lon="6.78331">
        <ele>375.3</ele>
        <time>2020-03-01T15:49:16.000Z</time>
      </trkpt>
      <trkpt lat="43.63935" lon="6.78332">
        <ele>375.7</ele>
        <time>2020-03-01T15:49:23.000Z</time>
      </trkpt>
      <trkpt lat="43.63925" lon="6.7833">
        <ele>374</ele>
        <time>2020-03-01T15:49:31.000Z</time>
      </trkpt>
      <trkpt lat="43.63916" lon="6.78328">
        <ele>373.6</ele>
        <time>2020-03-01T15:49:41.000Z</time>
      </trkpt>
      <trkpt lat="43.63906" lon="6.78332">
        <ele>373</ele>
        <time>2020-03-01T15:49:53.000Z</time>
      </trkpt>
      <trkpt lat="43.63897" lon="6.78336">
        <ele>373</ele>
        <time>2020-03-01T15:50:02.000Z</time>
      </trkpt>
      <trkpt lat="43.63888" lon="6.78342">
        <ele>373</ele>
        <time>2020-03-01T15:50:09.000Z</time>
      </trkpt>
      <trkpt lat="43.63879" lon="6.78343">
        <ele>372.7</ele>
        <time>2020-03-01T15:50:17.000Z</time>
      </trkpt>
      <trkpt lat="43.6387" lon="6.78344">
        <ele>372.8</ele>
        <time>2020-03-01T15:50:25.000Z</time>
      </trkpt>
      <trkpt lat="43.6386" lon="6.78343">
        <ele>372.2</ele>
        <time>2020-03-01T15:50:34.000Z</time>
      </trkpt>
      <trkpt lat="43.63851" lon="6.78341">
        <ele>371.8</ele>
        <time>2020-03-01T15:50:44.000Z</time>
      </trkpt>
      <trkpt lat="43.63841" lon="6.78342">
        <ele>371.4</ele>
        <time>2020-03-01T15:50:54.000Z</time>
      </trkpt>
      <trkpt lat="43.63833" lon="6.78347">
        <ele>372.5</ele>
        <time>2020-03-01T15:51:02.000Z</time>
      </trkpt>
      <trkpt lat="43.63824" lon="6.78352">
        <ele>371.8</ele>
        <time>2020-03-01T15:51:10.000Z</time>
      </trkpt>
      <trkpt lat="43.63815" lon="6.78357">
        <ele>372</ele>
        <time>2020-03-01T15:51:19.000Z</time>
      </trkpt>
      <trkpt lat="43.63806" lon="6.78361">
        <ele>371.8</ele>
        <time>2020-03-01T15:51:28.000Z</time>
      </trkpt>
      <trkpt lat="43.63797" lon="6.78365">
        <ele>371.6</ele>
        <time>2020-03-01T15:51:36.000Z</time>
      </trkpt>
      <trkpt lat="43.63788" lon="6.78366">
        <ele>371.3</ele>
        <time>2020-03-01T15:51:44.000Z</time>
      </trkpt>
      <trkpt lat="43.63778" lon="6.78368">
        <ele>371.2</ele>
        <time>2020-03-01T15:51:53.000Z</time>
      </trkpt>
      <trkpt lat="43.63769" lon="6.78365">
        <ele>371.5</ele>
        <time>2020-03-01T15:52:02.000Z</time>
      </trkpt>
      <trkpt lat="43.63761" lon="6.78361">
        <ele>371.9</ele>
        <time>2020-03-01T15:52:10.000Z</time>
      </trkpt>
      <trkpt lat="43.63752" lon="6.78356">
        <ele>371.8</ele>
        <time>2020-03-01T15:52:18.000Z</time>
      </trkpt>
      <trkpt lat="43.63744" lon="6.78351">
        <ele>371.8</ele>
        <time>2020-03-01T15:52:26.000Z</time>
      </trkpt>
      <trkpt lat="43.63734" lon="6.78347">
        <ele>373.1</ele>
        <time>2020-03-01T15:52:35.000Z</time>
      </trkpt>
      <trkpt lat="43.63726" lon="6.7834">
        <ele>374.5</ele>
        <time>2020-03-01T15:52:44.000Z</time>
      </trkpt>
      <trkpt lat="43.63718" lon="6.78332">
        <ele>376</ele>
        <time>2020-03-01T15:52:53.000Z</time>
      </trkpt>
      <trkpt lat="43.63711" lon="6.78325">
        <ele>375.6</ele>
        <time>2020-03-01T15:53:02.000Z</time>
      </trkpt>
      <trkpt lat="43.63701" lon="6.7832">
        <ele>375.6</ele>
        <time>2020-03-01T15:53:10.000Z</time>
      </trkpt>
      <trkpt lat="43.63693" lon="6.78314">
        <ele>376.3</ele>
        <time>2020-03-01T15:53:19.000Z</time>
      </trkpt>
      <trkpt lat="43.63684" lon="6.78309">
        <ele>377.3</ele>
        <time>2020-03-01T15:53:27.000Z</time>
      </trkpt>
      <trkpt lat="43.63675" lon="6.78304">
        <ele>377.4</ele>
        <time>2020-03-01T15:53:36.000Z</time>
      </trkpt>
      <trkpt lat="43.63666" lon="6.78297">
        <ele>377.8</ele>
        <time>2020-03-01T15:53:46.000Z</time>
      </trkpt>
      <trkpt lat="43.63658" lon="6.78291">
        <ele>379</ele>
        <time>2020-03-01T15:53:54.000Z</time>
      </trkpt>
      <trkpt lat="43.6365" lon="6.78283">
        <ele>379</ele>
        <time>2020-03-01T15:54:04.000Z</time>
      </trkpt>
      <trkpt lat="43.63641" lon="6.78278">
        <ele>379.5</ele>
        <time>2020-03-01T15:54:13.000Z</time>
      </trkpt>
      <trkpt lat="43.63632" lon="6.78274">
        <ele>378.5</ele>
        <time>2020-03-01T15:54:22.000Z</time>
      </trkpt>
      <trkpt lat="43.63623" lon="6.78269">
        <ele>377.1</ele>
        <time>2020-03-01T15:54:31.000Z</time>
      </trkpt>
      <trkpt lat="43.63614" lon="6.78262">
        <ele>376.8</ele>
        <time>2020-03-01T15:54:39.000Z</time>
      </trkpt>
      <trkpt lat="43.63604" lon="6.7826">
        <ele>375.3</ele>
        <time>2020-03-01T15:54:46.000Z</time>
      </trkpt>
      <trkpt lat="43.63595" lon="6.78255">
        <ele>374</ele>
        <time>2020-03-01T15:54:55.000Z</time>
      </trkpt>
      <trkpt lat="43.63587" lon="6.78249">
        <ele>374.3</ele>
        <time>2020-03-01T15:55:03.000Z</time>
      </trkpt>
      <trkpt lat="43.63577" lon="6.78245">
        <ele>374</ele>
        <time>2020-03-01T15:55:12.000Z</time>
      </trkpt>
      <trkpt lat="43.63566" lon="6.7824">
        <ele>374.5</ele>
        <time>2020-03-01T15:55:22.000Z</time>
      </trkpt>
      <trkpt lat="43.63556" lon="6.78236">
        <ele>375.7</ele>
        <time>2020-03-01T15:55:30.000Z</time>
      </trkpt>
      <trkpt lat="43.63546" lon="6.78231">
        <ele>375.4</ele>
        <time>2020-03-01T15:55:40.000Z</time>
      </trkpt>
      <trkpt lat="43.63537" lon="6.78228">
        <ele>374.5</ele>
        <time>2020-03-01T15:55:48.000Z</time>
      </trkpt>
      <trkpt lat="43.63528" lon="6.78225">
        <ele>374.9</ele>
        <time>2020-03-01T15:55:56.000Z</time>
      </trkpt>
      <trkpt lat="43.63518" lon="6.78221">
        <ele>374.6</ele>
        <time>2020-03-01T15:56:04.000Z</time>
      </trkpt>
      <trkpt lat="43.63509" lon="6.78216">
        <ele>376.2</ele>
        <time>2020-03-01T15:56:14.000Z</time>
      </trkpt>
      <trkpt lat="43.63499" lon="6.78217">
        <ele>378.3</ele>
        <time>2020-03-01T15:56:24.000Z</time>
      </trkpt>
      <trkpt lat="43.6349" lon="6.7822">
        <ele>379.8</ele>
        <time>2020-03-01T15:56:34.000Z</time>
      </trkpt>
      <trkpt lat="43.63481" lon="6.78221">
        <ele>380</ele>
        <time>2020-03-01T15:56:42.000Z</time>
      </trkpt>
      <trkpt lat="43.63471" lon="6.78223">
        <ele>381.1</ele>
        <time>2020-03-01T15:56:52.000Z</time>
      </trkpt>
      <trkpt lat="43.63462" lon="6.78223">
        <ele>381.7</ele>
        <time>2020-03-01T15:57:00.000Z</time>
      </trkpt>
      <trkpt lat="43.63452" lon="6.78223">
        <ele>381</ele>
        <time>2020-03-01T15:57:08.000Z</time>
      </trkpt>
      <trkpt lat="43.63443" lon="6.78221">
        <ele>380.4</ele>
        <time>2020-03-01T15:57:16.000Z</time>
      </trkpt>
      <trkpt lat="43.63434" lon="6.78221">
        <ele>380.1</ele>
        <time>2020-03-01T15:57:25.000Z</time>
      </trkpt>
      <trkpt lat="43.63425" lon="6.78219">
        <ele>380.1</ele>
        <time>2020-03-01T15:57:34.000Z</time>
      </trkpt>
      <trkpt lat="43.63415" lon="6.78216">
        <ele>380</ele>
        <time>2020-03-01T15:57:43.000Z</time>
      </trkpt>
      <trkpt lat="43.63406" lon="6.78213">
        <ele>381</ele>
        <time>2020-03-01T15:57:53.000Z</time>
      </trkpt>
      <trkpt lat="43.63396" lon="6.78214">
        <ele>382.8</ele>
        <time>2020-03-01T15:58:00.000Z</time>
      </trkpt>
      <trkpt lat="43.63386" lon="6.78212">
        <ele>383</ele>
        <time>2020-03-01T15:58:10.000Z</time>
      </trkpt>
      <trkpt lat="43.63377" lon="6.78212">
        <ele>382.7</ele>
        <time>2020-03-01T15:58:18.000Z</time>
      </trkpt>
      <trkpt lat="43.63367" lon="6.78213">
        <ele>382</ele>
        <time>2020-03-01T15:58:26.000Z</time>
      </trkpt>
      <trkpt lat="43.63358" lon="6.78214">
        <ele>380.3</ele>
        <time>2020-03-01T15:58:36.000Z</time>
      </trkpt>
      <trkpt lat="43.63349" lon="6.78216">
        <ele>380</ele>
        <time>2020-03-01T15:58:45.000Z</time>
      </trkpt>
      <trkpt lat="43.63339" lon="6.78218">
        <ele>379.3</ele>
        <time>2020-03-01T15:58:54.000Z</time>
      </trkpt>
      <trkpt lat="43.6333" lon="6.78221">
        <ele>378.8</ele>
        <time>2020-03-01T15:59:04.000Z</time>
      </trkpt>
    </trkseg>
  </trk>
</gpx>